ASA829 KJFK-PHNL
Flight info
| Callsign | ASA829 |
|---|---|
| Flight time | N/A |
| Altitude | 36000 |
| Route | DEEZZ6 CANDR J60 DJB JOT LNK DVV/N0475F380 DTA MVA OAK BEBOP R464 BARAZ/N0459F400 R464 BITTA MAGGI3 |
| Aircraft | A332/H-SDE3GHIJ2J3J5M1RVWXY/LB2D1 |
Departure
| Time | 2026-05-04 06:57 |
|---|---|
| Airport | John F. Kennedy International Airport (KJFK) |
Arrival
| Time | N/A |
|---|---|
| Airport | Daniel K. Inouye International Airport (PHNL) |
| Time | Latitude | Longitude | Altitude | Speed | Heading |
|---|---|---|---|---|---|
| 2026-05-04 06:40 | 40.65073 | -73.79019 | 27 ft | 2 kts | 310° |
| 2026-05-04 06:40 | 40.65058 | -73.78999 | 27 ft | 4 kts | 334° |
| 2026-05-04 06:40 | 40.65036 | -73.78988 | 27 ft | 4 kts | 334° |
| 2026-05-04 06:40 | 40.65024 | -73.78969 | 27 ft | 4 kts | 257° |
| 2026-05-04 06:41 | 40.65034 | -73.78939 | 27 ft | 4 kts | 240° |
| 2026-05-04 06:41 | 40.65040 | -73.78925 | 27 ft | 1 kts | 240° |
| 2026-05-04 06:44 | 40.65040 | -73.78926 | 27 ft | 1 kts | 240° |
| 2026-05-04 06:44 | 40.65025 | -73.78960 | 27 ft | 7 kts | 240° |
| 2026-05-04 06:44 | 40.64996 | -73.79030 | 27 ft | 9 kts | 241° |
| 2026-05-04 06:45 | 40.64956 | -73.79125 | 27 ft | 13 kts | 241° |
| 2026-05-04 06:45 | 40.64911 | -73.79229 | 27 ft | 12 kts | 240° |
| 2026-05-04 06:45 | 40.64870 | -73.79325 | 27 ft | 12 kts | 240° |
| 2026-05-04 06:45 | 40.64830 | -73.79419 | 27 ft | 13 kts | 242° |
| 2026-05-04 06:46 | 40.64780 | -73.79538 | 27 ft | 15 kts | 240° |
| 2026-05-04 06:46 | 40.64714 | -73.79617 | 27 ft | 12 kts | 176° |
| 2026-05-04 06:46 | 40.64643 | -73.79564 | 27 ft | 12 kts | 145° |
| 2026-05-04 06:46 | 40.64560 | -73.79515 | 27 ft | 17 kts | 166° |
| 2026-05-04 06:48 | 40.64162 | -73.79507 | 28 ft | 2 kts | 183° |
| 2026-05-04 06:48 | 40.64157 | -73.79508 | 28 ft | 0 kts | 183° |
| 2026-05-04 06:50 | 40.64027 | -73.79406 | 31 ft | 9 kts | 121° |
| 2026-05-04 06:51 | 40.63992 | -73.79329 | 29 ft | 11 kts | 120° |
| 2026-05-04 06:51 | 40.63948 | -73.79229 | 25 ft | 14 kts | 120° |
| 2026-05-04 06:51 | 40.63893 | -73.79109 | 30 ft | 15 kts | 121° |
| 2026-05-04 06:51 | 40.63842 | -73.78995 | 27 ft | 16 kts | 120° |
| 2026-05-04 06:52 | 40.63779 | -73.78858 | 30 ft | 18 kts | 121° |
| 2026-05-04 06:52 | 40.63710 | -73.78706 | 33 ft | 21 kts | 121° |
| 2026-05-04 06:52 | 40.63631 | -73.78531 | 33 ft | 24 kts | 121° |
| 2026-05-04 06:52 | 40.63540 | -73.78331 | 30 ft | 27 kts | 121° |
| 2026-05-04 06:53 | 40.63444 | -73.78120 | 28 ft | 26 kts | 120° |
| 2026-05-04 06:53 | 40.63351 | -73.77913 | 28 ft | 25 kts | 118° |
| 2026-05-04 06:53 | 40.63269 | -73.77721 | 31 ft | 23 kts | 121° |
| 2026-05-04 06:53 | 40.63188 | -73.77545 | 33 ft | 22 kts | 121° |
| 2026-05-04 06:54 | 40.63112 | -73.77377 | 31 ft | 22 kts | 120° |
| 2026-05-04 06:54 | 40.63043 | -73.77225 | 30 ft | 14 kts | 121° |
| 2026-05-04 06:54 | 40.62989 | -73.77112 | 27 ft | 15 kts | 135° |
| 2026-05-04 06:54 | 40.62908 | -73.77116 | 28 ft | 11 kts | 203° |
| 2026-05-04 06:55 | 40.62841 | -73.77171 | 27 ft | 12 kts | 219° |
| 2026-05-04 06:55 | 40.62838 | -73.77260 | 28 ft | 10 kts | 295° |
| 2026-05-04 06:55 | 40.62895 | -73.77384 | 31 ft | 27 kts | 302° |
| 2026-05-04 06:55 | 40.63087 | -73.77812 | 33 ft | 83 kts | 301° |
| 2026-05-04 06:56 | 40.63480 | -73.78679 | 29 ft | 136 kts | 301° |
| 2026-05-04 06:57 | 40.61211 | -73.87507 | 3384 ft | 228 kts | 219° |
| 2026-05-04 06:58 | 40.59714 | -73.88406 | 3748 ft | 249 kts | 193° |
| 2026-05-04 06:58 | 40.57939 | -73.88126 | 4190 ft | 268 kts | 165° |
| 2026-05-04 06:58 | 40.56199 | -73.87156 | 4755 ft | 274 kts | 159° |
| 2026-05-04 06:58 | 40.54451 | -73.86124 | 5349 ft | 276 kts | 165° |
| 2026-05-04 06:59 | 40.52594 | -73.85548 | 5960 ft | 274 kts | 176° |
| 2026-05-04 06:59 | 40.50719 | -73.85238 | 6550 ft | 277 kts | 178° |
| 2026-05-04 06:59 | 40.48798 | -73.84973 | 7146 ft | 279 kts | 178° |
| 2026-05-04 06:59 | 40.46853 | -73.84719 | 7762 ft | 282 kts | 178° |
| 2026-05-04 07:01 | 40.37780 | -73.92382 | 10808 ft | 310 kts | 297° |
| 2026-05-04 07:01 | 40.39021 | -73.94794 | 11053 ft | 326 kts | 306° |
| 2026-05-04 07:02 | 40.40452 | -73.97167 | 11386 ft | 336 kts | 306° |
| 2026-05-04 07:02 | 40.41915 | -73.99585 | 11867 ft | 340 kts | 306° |
| 2026-05-04 07:02 | 40.43379 | -74.02043 | 12462 ft | 343 kts | 305° |
| 2026-05-04 07:02 | 40.44844 | -74.04530 | 13042 ft | 345 kts | 305° |
| 2026-05-04 07:03 | 40.46306 | -74.07033 | 13659 ft | 346 kts | 304° |
| 2026-05-04 07:03 | 40.47746 | -74.09509 | 14207 ft | 347 kts | 304° |
| 2026-05-04 07:03 | 40.49215 | -74.12042 | 14702 ft | 349 kts | 304° |
| 2026-05-04 07:03 | 40.50691 | -74.14592 | 15205 ft | 352 kts | 304° |
| 2026-05-04 07:04 | 40.52147 | -74.17190 | 15716 ft | 353 kts | 300° |
| 2026-05-04 07:04 | 40.53290 | -74.20030 | 16195 ft | 352 kts | 289° |
| 2026-05-04 07:04 | 40.53962 | -74.23128 | 16703 ft | 353 kts | 281° |
| 2026-05-04 07:04 | 40.54384 | -74.26311 | 17203 ft | 355 kts | 277° |
| 2026-05-04 07:05 | 40.54668 | -74.29544 | 17679 ft | 357 kts | 275° |
| 2026-05-04 07:05 | 40.54879 | -74.32769 | 18145 ft | 360 kts | 274° |
| 2026-05-04 07:05 | 40.55070 | -74.36053 | 18569 ft | 362 kts | 274° |
| 2026-05-04 07:05 | 40.55262 | -74.39366 | 18966 ft | 364 kts | 274° |
| 2026-05-04 07:06 | 40.55681 | -74.46036 | 19782 ft | 368 kts | 275° |
| 2026-05-04 07:06 | 40.55906 | -74.49393 | 20185 ft | 369 kts | 275° |
| 2026-05-04 07:06 | 40.56137 | -74.52765 | 20576 ft | 371 kts | 275° |
| 2026-05-04 07:07 | 40.56370 | -74.56152 | 20975 ft | 373 kts | 275° |
| 2026-05-04 07:08 | 40.58004 | -74.80279 | 23576 ft | 385 kts | 275° |
| 2026-05-04 07:09 | 40.58237 | -74.83798 | 23882 ft | 387 kts | 275° |
| 2026-05-04 07:09 | 40.58467 | -74.87279 | 24173 ft | 389 kts | 275° |
| 2026-05-04 07:09 | 40.58699 | -74.90827 | 24473 ft | 390 kts | 275° |
| 2026-05-04 07:09 | 40.58932 | -74.94393 | 24766 ft | 392 kts | 274° |
| 2026-05-04 07:10 | 40.59164 | -74.97970 | 25064 ft | 393 kts | 274° |
| 2026-05-04 07:10 | 40.59397 | -75.01561 | 25366 ft | 395 kts | 274° |
| 2026-05-04 07:12 | 40.61019 | -75.27126 | 27354 ft | 405 kts | 274° |
| 2026-05-04 07:12 | 40.61249 | -75.30829 | 27641 ft | 406 kts | 274° |
| 2026-05-04 07:12 | 40.61478 | -75.34540 | 27911 ft | 408 kts | 274° |
| 2026-05-04 07:12 | 40.61708 | -75.38277 | 28169 ft | 410 kts | 274° |
| 2026-05-04 07:13 | 40.61936 | -75.42014 | 28436 ft | 412 kts | 274° |
| 2026-05-04 07:13 | 40.62166 | -75.45793 | 28639 ft | 415 kts | 274° |
| 2026-05-04 07:13 | 40.62393 | -75.49531 | 28825 ft | 418 kts | 274° |
| 2026-05-04 07:14 | 40.63309 | -75.64879 | 29882 ft | 423 kts | 274° |
| 2026-05-04 07:14 | 40.63536 | -75.68732 | 30218 ft | 422 kts | 274° |
| 2026-05-04 07:15 | 40.63685 | -75.71286 | 30433 ft | 421 kts | 274° |
| 2026-05-04 07:15 | 40.63909 | -75.75123 | 30754 ft | 419 kts | 274° |
| 2026-05-04 07:15 | 40.64130 | -75.78945 | 31064 ft | 418 kts | 274° |
| 2026-05-04 07:15 | 40.64351 | -75.82767 | 31262 ft | 420 kts | 274° |
| 2026-05-04 07:16 | 40.64641 | -75.87848 | 31570 ft | 420 kts | 274° |
| 2026-05-04 07:16 | 40.64858 | -75.91677 | 31875 ft | 419 kts | 274° |
| 2026-05-04 07:16 | 40.65004 | -75.94254 | 32097 ft | 418 kts | 274° |
| 2026-05-04 07:16 | 40.65216 | -75.98008 | 32386 ft | 416 kts | 273° |
| 2026-05-04 07:17 | 40.65429 | -76.01811 | 32656 ft | 415 kts | 273° |
| 2026-05-04 07:17 | 40.65640 | -76.05599 | 32930 ft | 415 kts | 273° |
| 2026-05-04 07:17 | 40.65849 | -76.09384 | 33191 ft | 414 kts | 273° |
| 2026-05-04 07:17 | 40.66123 | -76.14381 | 33516 ft | 413 kts | 273° |
| 2026-05-04 07:18 | 40.66262 | -76.16927 | 33653 ft | 413 kts | 273° |
| 2026-05-04 07:18 | 40.66468 | -76.20715 | 33769 ft | 415 kts | 273° |
| 2026-05-04 07:18 | 40.66794 | -76.24444 | 33971 ft | 416 kts | 278° |
| 2026-05-04 07:18 | 40.67288 | -76.28188 | 34200 ft | 414 kts | 279° |
| 2026-05-04 07:19 | 40.67817 | -76.31918 | 34380 ft | 414 kts | 279° |
| 2026-05-04 07:19 | 40.68367 | -76.35642 | 34535 ft | 414 kts | 279° |
| 2026-05-04 07:19 | 40.68927 | -76.39365 | 34676 ft | 415 kts | 279° |
| 2026-05-04 07:19 | 40.69490 | -76.43087 | 34819 ft | 415 kts | 279° |
| 2026-05-04 07:20 | 40.70052 | -76.46822 | 34956 ft | 415 kts | 279° |
| 2026-05-04 07:20 | 40.70610 | -76.50551 | 35092 ft | 415 kts | 279° |
| 2026-05-04 07:20 | 40.71159 | -76.54239 | 35219 ft | 416 kts | 279° |
| 2026-05-04 07:20 | 40.71713 | -76.57981 | 35339 ft | 416 kts | 279° |
| 2026-05-04 07:22 | 40.75536 | -76.84108 | 36016 ft | 408 kts | 279° |
| 2026-05-04 07:22 | 40.76068 | -76.87778 | 36016 ft | 406 kts | 279° |
| 2026-05-04 07:23 | 40.77118 | -76.95052 | 36011 ft | 407 kts | 279° |
| 2026-05-04 07:23 | 40.78173 | -77.02391 | 36006 ft | 407 kts | 279° |
| 2026-05-04 07:24 | 40.79222 | -77.09727 | 36011 ft | 407 kts | 279° |
| 2026-05-04 07:24 | 40.80269 | -77.17076 | 36012 ft | 407 kts | 279° |
| 2026-05-04 07:26 | 40.84396 | -77.46411 | 36006 ft | 407 kts | 279° |
| 2026-05-04 07:27 | 40.85410 | -77.53709 | 36003 ft | 407 kts | 279° |
| 2026-05-04 07:27 | 40.86428 | -77.61069 | 36005 ft | 407 kts | 279° |
| 2026-05-04 07:28 | 40.87440 | -77.68429 | 36003 ft | 407 kts | 279° |
| 2026-05-04 07:28 | 40.88449 | -77.75796 | 36003 ft | 407 kts | 279° |
| 2026-05-04 07:29 | 40.89447 | -77.83113 | 35992 ft | 407 kts | 279° |
| 2026-05-04 07:29 | 40.90446 | -77.90484 | 35992 ft | 407 kts | 279° |
| 2026-05-04 07:30 | 40.91441 | -77.97861 | 35992 ft | 407 kts | 279° |
| 2026-05-04 07:30 | 40.92390 | -78.05243 | 35994 ft | 407 kts | 278° |
| 2026-05-04 07:31 | 40.93301 | -78.12632 | 35995 ft | 407 kts | 278° |
| 2026-05-04 07:33 | 40.96904 | -78.42178 | 35977 ft | 407 kts | 278° |
| 2026-05-04 07:33 | 40.97791 | -78.49531 | 35983 ft | 407 kts | 278° |
| 2026-05-04 07:34 | 40.98679 | -78.56937 | 35978 ft | 407 kts | 278° |
| 2026-05-04 07:34 | 40.99562 | -78.64345 | 35984 ft | 407 kts | 278° |
| 2026-05-04 07:35 | 41.00440 | -78.71749 | 35984 ft | 407 kts | 278° |
| 2026-05-04 07:35 | 41.01308 | -78.79106 | 35963 ft | 407 kts | 278° |
| 2026-05-04 07:36 | 41.02174 | -78.86502 | 35964 ft | 407 kts | 278° |
| 2026-05-04 07:38 | 41.05599 | -79.16136 | 35970 ft | 409 kts | 278° |
| 2026-05-04 07:38 | 41.06447 | -79.23582 | 35972 ft | 409 kts | 278° |
| 2026-05-04 07:39 | 41.07290 | -79.31033 | 35975 ft | 409 kts | 278° |
| 2026-05-04 07:39 | 41.08128 | -79.38477 | 35976 ft | 409 kts | 278° |
| 2026-05-04 07:40 | 41.08962 | -79.45930 | 35979 ft | 409 kts | 278° |
| 2026-05-04 07:40 | 41.09788 | -79.53356 | 35980 ft | 410 kts | 278° |
| 2026-05-04 07:41 | 41.10615 | -79.60841 | 35976 ft | 410 kts | 278° |
| 2026-05-04 07:41 | 41.11437 | -79.68330 | 35977 ft | 411 kts | 278° |
| 2026-05-04 07:42 | 41.12256 | -79.75827 | 35969 ft | 411 kts | 278° |
| 2026-05-04 07:42 | 41.13063 | -79.83270 | 35966 ft | 411 kts | 278° |
| 2026-05-04 07:43 | 41.13873 | -79.90773 | 35969 ft | 411 kts | 278° |
| 2026-05-04 07:43 | 41.14677 | -79.98282 | 35968 ft | 411 kts | 278° |
| 2026-05-04 07:44 | 41.15478 | -80.05797 | 35972 ft | 411 kts | 278° |
| 2026-05-04 07:44 | 41.16273 | -80.13311 | 35974 ft | 411 kts | 278° |
| 2026-05-04 07:45 | 41.17057 | -80.20774 | 35975 ft | 411 kts | 279° |
| 2026-05-04 07:45 | 41.17842 | -80.28295 | 35971 ft | 412 kts | 279° |
| 2026-05-04 07:46 | 41.18624 | -80.35831 | 35970 ft | 412 kts | 278° |
| 2026-05-04 07:46 | 41.19400 | -80.43362 | 35969 ft | 412 kts | 278° |
| 2026-05-04 07:47 | 41.20167 | -80.50847 | 35970 ft | 412 kts | 278° |
| 2026-05-04 07:49 | 41.23195 | -80.80929 | 35933 ft | 411 kts | 278° |
| 2026-05-04 07:49 | 41.23941 | -80.88460 | 35932 ft | 411 kts | 278° |
| 2026-05-04 07:50 | 41.24681 | -80.95993 | 35931 ft | 411 kts | 278° |
| 2026-05-04 07:50 | 41.25415 | -81.03504 | 35917 ft | 410 kts | 278° |
| 2026-05-04 07:51 | 41.26139 | -81.10964 | 35919 ft | 410 kts | 278° |
| 2026-05-04 07:51 | 41.26862 | -81.18473 | 35920 ft | 410 kts | 278° |
| 2026-05-04 07:52 | 41.27580 | -81.25983 | 35916 ft | 410 kts | 278° |
| 2026-05-04 07:52 | 41.28294 | -81.33495 | 35916 ft | 409 kts | 278° |
| 2026-05-04 07:54 | 41.31093 | -81.63499 | 35890 ft | 409 kts | 278° |
| 2026-05-04 07:55 | 41.31781 | -81.71016 | 35893 ft | 409 kts | 278° |
| 2026-05-04 07:55 | 41.32459 | -81.78485 | 35885 ft | 409 kts | 278° |
| 2026-05-04 07:56 | 41.33138 | -81.86004 | 35887 ft | 409 kts | 278° |
| 2026-05-04 07:56 | 41.33811 | -81.93526 | 35860 ft | 409 kts | 278° |
| 2026-05-04 07:57 | 41.34480 | -82.01053 | 35898 ft | 409 kts | 278° |
| 2026-05-04 07:57 | 41.35139 | -82.08525 | 35896 ft | 409 kts | 278° |
| 2026-05-04 07:58 | 41.35791 | -82.16047 | 35897 ft | 409 kts | 277° |
| 2026-05-04 07:58 | 41.36284 | -82.23603 | 35896 ft | 410 kts | 276° |
| 2026-05-04 07:59 | 41.36687 | -82.31172 | 35898 ft | 410 kts | 276° |
| 2026-05-04 07:59 | 41.37087 | -82.38740 | 35896 ft | 410 kts | 276° |
| 2026-05-04 08:00 | 41.37495 | -82.46262 | 35887 ft | 410 kts | 276° |
| 2026-05-04 08:02 | 41.39116 | -82.76554 | 35865 ft | 411 kts | 276° |
| 2026-05-04 08:02 | 41.39509 | -82.84148 | 35860 ft | 412 kts | 276° |
| 2026-05-04 08:03 | 41.39899 | -82.91764 | 35869 ft | 413 kts | 276° |
| 2026-05-04 08:03 | 41.40284 | -82.99387 | 35861 ft | 413 kts | 276° |
| 2026-05-04 08:04 | 41.40663 | -83.07010 | 35869 ft | 412 kts | 276° |
| 2026-05-04 08:04 | 41.41036 | -83.14586 | 35868 ft | 412 kts | 276° |
| 2026-05-04 08:05 | 41.41405 | -83.22214 | 35868 ft | 413 kts | 276° |
| 2026-05-04 08:05 | 41.41770 | -83.29841 | 35874 ft | 413 kts | 276° |
| 2026-05-04 08:06 | 41.42130 | -83.37475 | 35871 ft | 413 kts | 276° |
| 2026-05-04 08:06 | 41.42482 | -83.45059 | 35873 ft | 413 kts | 276° |
| 2026-05-04 08:08 | 41.43851 | -83.75597 | 35854 ft | 413 kts | 276° |
| 2026-05-04 08:11 | 41.45292 | -84.09907 | 35857 ft | 413 kts | 276° |
| 2026-05-04 08:11 | 41.45748 | -84.21318 | 35857 ft | 413 kts | 276° |
| 2026-05-04 08:12 | 41.46048 | -84.28961 | 35847 ft | 413 kts | 276° |
| 2026-05-04 08:12 | 41.46342 | -84.36609 | 35855 ft | 413 kts | 276° |
| 2026-05-04 08:13 | 41.46629 | -84.44201 | 35842 ft | 413 kts | 276° |
| 2026-05-04 08:13 | 41.46914 | -84.51851 | 35839 ft | 413 kts | 275° |
| 2026-05-04 08:14 | 41.47193 | -84.59498 | 35851 ft | 413 kts | 275° |
| 2026-05-04 08:16 | 41.48258 | -84.90049 | 35840 ft | 413 kts | 275° |
| 2026-05-04 08:16 | 41.48512 | -84.97706 | 35812 ft | 413 kts | 275° |
| 2026-05-04 08:17 | 41.48761 | -85.05360 | 35796 ft | 413 kts | 275° |
| 2026-05-04 08:17 | 41.49003 | -85.12967 | 35811 ft | 414 kts | 275° |
| 2026-05-04 08:19 | 41.49928 | -85.43587 | 35801 ft | 414 kts | 275° |
| 2026-05-04 08:20 | 41.50147 | -85.51254 | 35810 ft | 414 kts | 275° |
| 2026-05-04 08:20 | 41.50361 | -85.58934 | 35802 ft | 414 kts | 275° |
| 2026-05-04 08:21 | 41.50570 | -85.66617 | 35795 ft | 414 kts | 275° |
| 2026-05-04 08:21 | 41.50774 | -85.74303 | 35794 ft | 414 kts | 275° |
| 2026-05-04 08:22 | 41.50972 | -85.81933 | 35795 ft | 414 kts | 275° |
| 2026-05-04 08:24 | 41.51714 | -86.12623 | 35801 ft | 415 kts | 275° |
| 2026-05-04 08:24 | 41.51887 | -86.20312 | 35795 ft | 414 kts | 275° |
| 2026-05-04 08:25 | 41.52056 | -86.28000 | 35797 ft | 415 kts | 275° |
| 2026-05-04 08:25 | 41.52219 | -86.35689 | 35800 ft | 415 kts | 275° |
| 2026-05-04 08:27 | 41.52819 | -86.66408 | 35786 ft | 415 kts | 274° |
| 2026-05-04 08:28 | 41.52957 | -86.74103 | 35786 ft | 415 kts | 274° |
| 2026-05-04 08:28 | 41.53088 | -86.81756 | 35787 ft | 415 kts | 274° |
| 2026-05-04 08:29 | 41.53216 | -86.89456 | 35790 ft | 415 kts | 274° |
| 2026-05-04 08:31 | 41.53673 | -87.20226 | 35780 ft | 416 kts | 274° |
| 2026-05-04 08:33 | 41.54050 | -87.51070 | 35785 ft | 417 kts | 274° |
| 2026-05-04 08:35 | 41.54345 | -87.81972 | 35780 ft | 418 kts | 273° |
| 2026-05-04 08:35 | 41.54406 | -87.89728 | 35778 ft | 418 kts | 273° |
| 2026-05-04 08:37 | 41.54577 | -88.16768 | 35776 ft | 417 kts | 272° |
| 2026-05-04 08:38 | 41.54615 | -88.24506 | 35775 ft | 417 kts | 272° |
| 2026-05-04 08:38 | 41.54632 | -88.32244 | 35777 ft | 417 kts | 271° |
| 2026-05-04 08:40 | 41.53443 | -88.63154 | 35759 ft | 417 kts | 269° |
| 2026-05-04 08:41 | 41.53134 | -88.70889 | 35765 ft | 417 kts | 269° |
| 2026-05-04 08:41 | 41.52824 | -88.78576 | 35776 ft | 417 kts | 269° |
| 2026-05-04 08:42 | 41.52505 | -88.86311 | 35770 ft | 417 kts | 269° |
| 2026-05-04 08:42 | 41.52180 | -88.94053 | 35782 ft | 419 kts | 269° |
| 2026-05-04 08:43 | 41.51849 | -89.01810 | 35782 ft | 419 kts | 269° |
| 2026-05-04 08:43 | 41.51514 | -89.09523 | 35773 ft | 419 kts | 269° |
| 2026-05-04 08:44 | 41.51172 | -89.17286 | 35784 ft | 419 kts | 269° |
| 2026-05-04 08:46 | 41.49754 | -89.48294 | 35777 ft | 420 kts | 268° |
| 2026-05-04 08:46 | 41.49386 | -89.56061 | 35781 ft | 420 kts | 268° |
| 2026-05-04 08:47 | 41.49015 | -89.63775 | 35783 ft | 420 kts | 268° |
| 2026-05-04 08:47 | 41.48637 | -89.71534 | 35772 ft | 419 kts | 268° |
| 2026-05-04 08:48 | 41.48253 | -89.79296 | 35769 ft | 419 kts | 268° |
| 2026-05-04 08:48 | 41.47864 | -89.87061 | 35774 ft | 419 kts | 268° |
| 2026-05-04 08:49 | 41.47470 | -89.94823 | 35779 ft | 419 kts | 268° |
| 2026-05-04 08:50 | 41.46048 | -90.21985 | 35771 ft | 421 kts | 268° |
| 2026-05-04 08:51 | 41.45632 | -90.29716 | 35779 ft | 421 kts | 268° |
| 2026-05-04 08:51 | 41.45207 | -90.37498 | 35776 ft | 421 kts | 268° |
| 2026-05-04 08:52 | 41.44777 | -90.45289 | 35777 ft | 422 kts | 268° |
| 2026-05-04 08:52 | 41.44342 | -90.53088 | 35776 ft | 422 kts | 268° |
| 2026-05-04 08:54 | 41.42546 | -90.84258 | 35774 ft | 423 kts | 268° |
| 2026-05-04 08:55 | 41.42082 | -90.92076 | 35773 ft | 424 kts | 268° |
| 2026-05-04 08:55 | 41.41617 | -90.99847 | 35778 ft | 424 kts | 267° |
| 2026-05-04 09:01 | 41.36373 | -91.81853 | 35760 ft | 424 kts | 267° |
| 2026-05-04 09:01 | 41.35842 | -91.89674 | 35770 ft | 424 kts | 267° |
| 2026-05-04 09:02 | 41.35310 | -91.97437 | 35779 ft | 424 kts | 267° |
| 2026-05-04 09:02 | 41.34768 | -92.05256 | 35770 ft | 424 kts | 267° |
| 2026-05-04 09:03 | 41.34221 | -92.13075 | 35762 ft | 424 kts | 267° |
| 2026-05-04 09:03 | 41.33669 | -92.20890 | 35757 ft | 424 kts | 266° |
| 2026-05-04 09:04 | 41.33116 | -92.28646 | 35759 ft | 424 kts | 266° |
| 2026-05-04 09:04 | 41.32553 | -92.36459 | 35766 ft | 424 kts | 266° |
| 2026-05-04 09:05 | 41.31985 | -92.44279 | 35762 ft | 425 kts | 266° |
| 2026-05-04 09:05 | 41.31411 | -92.52104 | 35767 ft | 425 kts | 266° |
| 2026-05-04 09:06 | 41.30835 | -92.59880 | 35768 ft | 425 kts | 266° |
| 2026-05-04 09:08 | 41.28468 | -92.91112 | 35758 ft | 425 kts | 266° |
| 2026-05-04 09:08 | 41.27863 | -92.98918 | 35758 ft | 425 kts | 266° |
| 2026-05-04 09:09 | 41.27252 | -93.06729 | 35747 ft | 425 kts | 266° |
| 2026-05-04 09:09 | 41.26636 | -93.14532 | 35758 ft | 424 kts | 266° |
| 2026-05-04 09:10 | 41.26015 | -93.22333 | 35758 ft | 424 kts | 266° |
| 2026-05-04 09:10 | 41.25394 | -93.30080 | 35758 ft | 424 kts | 266° |
| 2026-05-04 09:11 | 41.24763 | -93.37873 | 35758 ft | 424 kts | 266° |
| 2026-05-04 09:11 | 41.24126 | -93.45670 | 35758 ft | 424 kts | 266° |
| 2026-05-04 09:12 | 41.23484 | -93.53467 | 35757 ft | 424 kts | 265° |
| 2026-05-04 09:14 | 41.20869 | -93.84574 | 35755 ft | 424 kts | 265° |
| 2026-05-04 09:14 | 41.20206 | -93.92305 | 35757 ft | 424 kts | 265° |
| 2026-05-04 09:15 | 41.19533 | -94.00086 | 35758 ft | 424 kts | 265° |
| 2026-05-04 09:15 | 41.18854 | -94.07865 | 35756 ft | 424 kts | 265° |
| 2026-05-04 09:17 | 41.15743 | -94.42798 | 35749 ft | 424 kts | 265° |
| 2026-05-04 09:18 | 41.15041 | -94.50513 | 35748 ft | 424 kts | 265° |
| 2026-05-04 09:18 | 41.14329 | -94.58283 | 35738 ft | 424 kts | 265° |
| 2026-05-04 09:19 | 41.13613 | -94.66043 | 35750 ft | 424 kts | 265° |
| 2026-05-04 09:19 | 41.12890 | -94.73811 | 35752 ft | 424 kts | 265° |
| 2026-05-04 09:20 | 41.12163 | -94.81566 | 35749 ft | 424 kts | 265° |
| 2026-05-04 09:20 | 41.11435 | -94.89279 | 35747 ft | 424 kts | 265° |
| 2026-05-04 09:21 | 41.10697 | -94.97037 | 35734 ft | 424 kts | 264° |
| 2026-05-04 09:21 | 41.09954 | -95.04790 | 35740 ft | 424 kts | 264° |
| 2026-05-04 09:22 | 41.09205 | -95.12549 | 35738 ft | 424 kts | 264° |
| 2026-05-04 09:22 | 41.08457 | -95.20247 | 35739 ft | 424 kts | 264° |
| 2026-05-04 09:23 | 41.07698 | -95.27999 | 35740 ft | 424 kts | 264° |
| 2026-05-04 09:23 | 41.06934 | -95.35751 | 35731 ft | 424 kts | 264° |
| 2026-05-04 09:25 | 41.03833 | -95.66677 | 35719 ft | 424 kts | 264° |
| 2026-05-04 09:26 | 41.03043 | -95.74415 | 35711 ft | 424 kts | 264° |
| 2026-05-04 09:26 | 41.02249 | -95.82144 | 35728 ft | 423 kts | 264° |
| 2026-05-04 09:27 | 41.01456 | -95.89816 | 35723 ft | 423 kts | 264° |
| 2026-05-04 09:27 | 41.00652 | -95.97540 | 35716 ft | 423 kts | 264° |
| 2026-05-04 09:28 | 40.99842 | -96.05266 | 35723 ft | 423 kts | 264° |
| 2026-05-04 09:28 | 40.99029 | -96.12979 | 35731 ft | 423 kts | 264° |
| 2026-05-04 09:29 | 40.98215 | -96.20638 | 35729 ft | 423 kts | 264° |
| 2026-05-04 09:29 | 40.97392 | -96.28340 | 35728 ft | 423 kts | 264° |
| 2026-05-04 09:30 | 40.96565 | -96.36036 | 35730 ft | 423 kts | 264° |
| 2026-05-04 09:30 | 40.95732 | -96.43730 | 35741 ft | 422 kts | 264° |
| 2026-05-04 09:31 | 40.94900 | -96.51368 | 35740 ft | 422 kts | 264° |
| 2026-05-04 09:31 | 40.94057 | -96.59052 | 35739 ft | 422 kts | 264° |
| 2026-05-04 09:32 | 40.93212 | -96.66719 | 35740 ft | 422 kts | 264° |
| 2026-05-04 09:34 | 40.90156 | -96.97369 | 35740 ft | 420 kts | 265° |
| 2026-05-04 09:34 | 40.89414 | -97.05034 | 35740 ft | 420 kts | 265° |
| 2026-05-04 09:35 | 40.88669 | -97.12642 | 35740 ft | 420 kts | 264° |
| 2026-05-04 09:35 | 40.87913 | -97.20300 | 35738 ft | 420 kts | 264° |
| 2026-05-04 09:37 | 40.84845 | -97.50868 | 35739 ft | 420 kts | 264° |
| 2026-05-04 09:38 | 40.84065 | -97.58513 | 35736 ft | 420 kts | 264° |
| 2026-05-04 09:38 | 40.83279 | -97.66159 | 35739 ft | 419 kts | 264° |
| 2026-05-04 09:39 | 40.82495 | -97.73733 | 35739 ft | 419 kts | 264° |
| 2026-05-04 09:39 | 40.81702 | -97.81357 | 35737 ft | 419 kts | 264° |
| 2026-05-04 09:40 | 40.80903 | -97.88978 | 35738 ft | 419 kts | 264° |
| 2026-05-04 09:40 | 40.80100 | -97.96593 | 35739 ft | 419 kts | 264° |
| 2026-05-04 09:42 | 40.76844 | -98.26970 | 35742 ft | 419 kts | 264° |
| 2026-05-04 09:43 | 40.76022 | -98.34518 | 35729 ft | 419 kts | 264° |
| 2026-05-04 09:43 | 40.75191 | -98.42101 | 35745 ft | 417 kts | 264° |
| 2026-05-04 09:44 | 40.74357 | -98.49663 | 35729 ft | 416 kts | 264° |
| 2026-05-04 09:46 | 40.70984 | -98.79791 | 35756 ft | 413 kts | 264° |
| 2026-05-04 09:46 | 40.70134 | -98.87266 | 35765 ft | 412 kts | 264° |
| 2026-05-04 09:47 | 40.69281 | -98.94735 | 35767 ft | 412 kts | 264° |
| 2026-05-04 09:49 | 40.65833 | -99.24457 | 35756 ft | 409 kts | 264° |
| 2026-05-04 09:51 | 40.62774 | -99.50274 | 35732 ft | 407 kts | 264° |
| 2026-05-04 09:51 | 40.61893 | -99.57609 | 35735 ft | 405 kts | 264° |
| 2026-05-04 09:52 | 40.61012 | -99.64918 | 35736 ft | 405 kts | 264° |
| 2026-05-04 09:52 | 40.60130 | -99.72191 | 35738 ft | 405 kts | 264° |
| 2026-05-04 09:53 | 40.59237 | -99.79509 | 35739 ft | 405 kts | 264° |
| 2026-05-04 09:53 | 40.58340 | -99.86819 | 35746 ft | 404 kts | 264° |
| 2026-05-04 09:54 | 40.57442 | -99.94100 | 35744 ft | 403 kts | 264° |
| 2026-05-04 09:54 | 40.56542 | -100.01366 | 35745 ft | 403 kts | 264° |
| 2026-05-04 09:55 | 40.55643 | -100.08583 | 35748 ft | 403 kts | 264° |
| 2026-05-04 09:55 | 40.54733 | -100.15847 | 35753 ft | 403 kts | 264° |
| 2026-05-04 09:56 | 40.53818 | -100.23109 | 35761 ft | 402 kts | 264° |
| 2026-05-04 09:56 | 40.52900 | -100.30359 | 35755 ft | 401 kts | 264° |
| 2026-05-04 09:57 | 40.51986 | -100.37541 | 35758 ft | 401 kts | 264° |
| 2026-05-04 09:57 | 40.51060 | -100.44775 | 35766 ft | 401 kts | 264° |
| 2026-05-04 09:58 | 40.50130 | -100.52009 | 35776 ft | 401 kts | 264° |
| 2026-05-04 09:58 | 40.49355 | -100.58013 | 35771 ft | 401 kts | 264° |
| 2026-05-04 10:00 | 40.45582 | -100.86858 | 35794 ft | 401 kts | 264° |
| 2026-05-04 10:04 | 40.38811 | -101.37246 | 35807 ft | 402 kts | 263° |
| 2026-05-04 10:04 | 40.37821 | -101.44469 | 35808 ft | 403 kts | 263° |
| 2026-05-04 10:05 | 40.36826 | -101.51696 | 35810 ft | 403 kts | 263° |
| 2026-05-04 10:05 | 40.35826 | -101.58924 | 35812 ft | 403 kts | 263° |
| 2026-05-04 10:06 | 40.34829 | -101.66093 | 35808 ft | 403 kts | 263° |
| 2026-05-04 10:06 | 40.33820 | -101.73320 | 35810 ft | 403 kts | 263° |
| 2026-05-04 10:08 | 40.30259 | -101.98544 | 35805 ft | 403 kts | 263° |
| 2026-05-04 10:08 | 40.29229 | -102.05763 | 35801 ft | 403 kts | 263° |
| 2026-05-04 10:09 | 40.28196 | -102.12969 | 35812 ft | 402 kts | 263° |
| 2026-05-04 10:09 | 40.27160 | -102.20160 | 35815 ft | 402 kts | 263° |
| 2026-05-04 10:10 | 40.26120 | -102.27351 | 35818 ft | 402 kts | 263° |
| 2026-05-04 10:10 | 40.25083 | -102.34490 | 35816 ft | 402 kts | 262° |
| 2026-05-04 10:11 | 40.24034 | -102.41673 | 35799 ft | 401 kts | 262° |
| 2026-05-04 10:11 | 40.22984 | -102.48833 | 35807 ft | 399 kts | 262° |
| 2026-05-04 10:12 | 40.21934 | -102.55957 | 35807 ft | 398 kts | 262° |
| 2026-05-04 10:12 | 40.20891 | -102.63011 | 35802 ft | 398 kts | 262° |
| 2026-05-04 10:13 | 40.19835 | -102.70116 | 35801 ft | 398 kts | 262° |
| 2026-05-04 10:13 | 40.18776 | -102.77212 | 35778 ft | 398 kts | 262° |
| 2026-05-04 10:14 | 40.17713 | -102.84301 | 35789 ft | 396 kts | 262° |
| 2026-05-04 10:16 | 40.13442 | -103.12482 | 35778 ft | 396 kts | 262° |
| 2026-05-04 10:16 | 40.12363 | -103.19522 | 35861 ft | 394 kts | 262° |
| 2026-05-04 10:17 | 40.11284 | -103.26531 | 35862 ft | 393 kts | 262° |
| 2026-05-04 10:19 | 40.06940 | -103.54474 | 35788 ft | 392 kts | 262° |
| 2026-05-04 10:19 | 40.05855 | -103.61380 | 35784 ft | 390 kts | 262° |
| 2026-05-04 10:20 | 40.04761 | -103.68316 | 35783 ft | 390 kts | 262° |
| 2026-05-04 10:20 | 40.03662 | -103.75256 | 35787 ft | 390 kts | 261° |
| 2026-05-04 10:21 | 40.02559 | -103.82190 | 35784 ft | 390 kts | 261° |
| 2026-05-04 10:21 | 40.01460 | -103.89073 | 35780 ft | 389 kts | 261° |
| 2026-05-04 10:22 | 39.99810 | -103.99344 | 35776 ft | 384 kts | 261° |
| 2026-05-04 10:23 | 39.98710 | -104.06168 | 35776 ft | 385 kts | 261° |
| 2026-05-04 10:25 | 39.94278 | -104.33381 | 35849 ft | 384 kts | 261° |
| 2026-05-04 10:25 | 39.93160 | -104.40182 | 35880 ft | 384 kts | 261° |
| 2026-05-04 10:26 | 39.92037 | -104.46983 | 35899 ft | 384 kts | 261° |
| 2026-05-04 10:26 | 39.90918 | -104.53734 | 35911 ft | 384 kts | 261° |
| 2026-05-04 10:27 | 39.89804 | -104.60527 | 35928 ft | 383 kts | 263° |
| 2026-05-04 10:27 | 39.89265 | -104.67406 | 35925 ft | 381 kts | 268° |
| 2026-05-04 10:28 | 39.88950 | -104.74299 | 35926 ft | 381 kts | 269° |
| 2026-05-04 10:28 | 39.88677 | -104.81144 | 35917 ft | 381 kts | 269° |
| 2026-05-04 10:29 | 39.88394 | -104.88036 | 35888 ft | 381 kts | 268° |
| 2026-05-04 10:29 | 39.88099 | -104.94923 | 35856 ft | 381 kts | 268° |
| 2026-05-04 10:30 | 39.87795 | -105.01827 | 35944 ft | 382 kts | 268° |
| 2026-05-04 10:30 | 39.87489 | -105.08682 | 35943 ft | 382 kts | 268° |
| 2026-05-04 10:31 | 39.87177 | -105.15583 | 35943 ft | 382 kts | 268° |
| 2026-05-04 10:32 | 39.86054 | -105.39732 | 35883 ft | 382 kts | 268° |
| 2026-05-04 10:33 | 39.85725 | -105.46577 | 35855 ft | 381 kts | 268° |
| 2026-05-04 10:33 | 39.85392 | -105.53461 | 35850 ft | 381 kts | 268° |
| 2026-05-04 10:34 | 39.85055 | -105.60345 | 35838 ft | 382 kts | 268° |
| 2026-05-04 10:34 | 39.84715 | -105.67235 | 35837 ft | 386 kts | 267° |
| 2026-05-04 10:35 | 39.84367 | -105.74206 | 35845 ft | 386 kts | 267° |
| 2026-05-04 10:35 | 39.84012 | -105.81169 | 35877 ft | 385 kts | 267° |
| 2026-05-04 10:36 | 39.83654 | -105.88123 | 35866 ft | 385 kts | 267° |
| 2026-05-04 10:36 | 39.83294 | -105.95032 | 35873 ft | 385 kts | 267° |
| 2026-05-04 10:37 | 39.82925 | -106.01989 | 35876 ft | 385 kts | 267° |
| 2026-05-04 10:37 | 39.82556 | -106.08909 | 35885 ft | 382 kts | 267° |
| 2026-05-04 10:39 | 39.81245 | -106.32958 | 35885 ft | 382 kts | 267° |
| 2026-05-04 10:40 | 39.80862 | -106.39826 | 35894 ft | 379 kts | 266° |
| 2026-05-04 10:40 | 39.80476 | -106.46639 | 35893 ft | 377 kts | 266° |
| 2026-05-04 10:41 | 39.80090 | -106.53378 | 35891 ft | 377 kts | 266° |
| 2026-05-04 10:41 | 39.79699 | -106.60174 | 35893 ft | 376 kts | 266° |
| 2026-05-04 10:42 | 39.79304 | -106.66958 | 35900 ft | 376 kts | 266° |
| 2026-05-04 10:42 | 39.78903 | -106.73741 | 35899 ft | 376 kts | 266° |
| 2026-05-04 10:43 | 39.78500 | -106.80503 | 35918 ft | 375 kts | 266° |
| 2026-05-04 10:44 | 39.77068 | -107.04087 | 36033 ft | 375 kts | 266° |
| 2026-05-04 10:45 | 39.76859 | -107.07461 | 36027 ft | 375 kts | 266° |
| 2026-05-04 10:45 | 39.76442 | -107.14147 | 35998 ft | 373 kts | 266° |
| 2026-05-04 10:46 | 39.76019 | -107.20869 | 35969 ft | 373 kts | 266° |
| 2026-05-04 10:46 | 39.75593 | -107.27588 | 35932 ft | 373 kts | 266° |
| 2026-05-04 10:47 | 39.75162 | -107.34301 | 35912 ft | 373 kts | 266° |
| 2026-05-04 10:47 | 39.74731 | -107.40962 | 35904 ft | 372 kts | 265° |
| 2026-05-04 10:49 | 39.72965 | -107.67651 | 35947 ft | 371 kts | 265° |
| 2026-05-04 10:50 | 39.72512 | -107.74334 | 35950 ft | 372 kts | 265° |
| 2026-05-04 10:52 | 39.70673 | -108.00927 | 35853 ft | 369 kts | 265° |
| 2026-05-04 10:52 | 39.70207 | -108.07569 | 35863 ft | 370 kts | 265° |
| 2026-05-04 10:54 | 39.68275 | -108.34415 | 35841 ft | 375 kts | 265° |
| 2026-05-04 10:56 | 39.66295 | -108.61023 | 35830 ft | 367 kts | 264° |
| 2026-05-04 10:57 | 39.65797 | -108.67605 | 35828 ft | 367 kts | 264° |
| 2026-05-04 10:57 | 39.65295 | -108.74188 | 35820 ft | 366 kts | 264° |
| 2026-05-04 10:58 | 39.64794 | -108.80715 | 35811 ft | 366 kts | 264° |
| 2026-05-04 10:58 | 39.64285 | -108.87284 | 35803 ft | 366 kts | 264° |
| 2026-05-04 10:59 | 39.63771 | -108.93859 | 35804 ft | 367 kts | 264° |
| 2026-05-04 10:59 | 39.63253 | -109.00437 | 35797 ft | 366 kts | 264° |
| 2026-05-04 11:00 | 39.62736 | -109.06970 | 35799 ft | 366 kts | 264° |
| 2026-05-04 11:02 | 39.60621 | -109.33201 | 35794 ft | 366 kts | 264° |
| 2026-05-04 11:05 | 39.56486 | -109.82458 | 35793 ft | 368 kts | 263° |
| 2026-05-04 11:06 | 39.55921 | -109.88985 | 36409 ft | 343 kts | 263° |
| 2026-05-04 11:06 | 39.55665 | -109.91937 | 37460 ft | 320 kts | 263° |
| 2026-05-04 11:06 | 39.55421 | -109.94735 | 37680 ft | 316 kts | 263° |
| 2026-05-04 11:08 | 39.53582 | -110.15659 | 36853 ft | 341 kts | 263° |
| 2026-05-04 11:10 | 39.51745 | -110.36074 | 37807 ft | 314 kts | 263° |
| 2026-05-04 11:12 | 39.49930 | -110.55817 | 36617 ft | 343 kts | 263° |
| 2026-05-04 11:12 | 39.49642 | -110.58919 | 36066 ft | 359 kts | 263° |
| 2026-05-04 11:12 | 39.49339 | -110.62169 | 35837 ft | 367 kts | 263° |
| 2026-05-04 11:12 | 39.49032 | -110.65462 | 35956 ft | 370 kts | 263° |
| 2026-05-04 11:13 | 39.48825 | -110.68776 | 36098 ft | 369 kts | 265° |
| 2026-05-04 11:13 | 39.48608 | -110.72091 | 36129 ft | 370 kts | 263° |
| 2026-05-04 11:13 | 39.48295 | -110.75405 | 35983 ft | 371 kts | 262° |
| 2026-05-04 11:13 | 39.47932 | -110.78706 | 35959 ft | 370 kts | 261° |
| 2026-05-04 11:14 | 39.47203 | -110.85299 | 35940 ft | 370 kts | 262° |
| 2026-05-04 11:16 | 39.44616 | -111.11728 | 35844 ft | 371 kts | 262° |
| 2026-05-04 11:16 | 39.43975 | -111.18300 | 35824 ft | 370 kts | 262° |
| 2026-05-04 11:17 | 39.43318 | -111.24931 | 35827 ft | 373 kts | 262° |
| 2026-05-04 11:19 | 39.40676 | -111.51428 | 35823 ft | 372 kts | 262° |
| 2026-05-04 11:19 | 39.40004 | -111.58060 | 35817 ft | 372 kts | 262° |
| 2026-05-04 11:20 | 39.39329 | -111.64691 | 35816 ft | 372 kts | 262° |
| 2026-05-04 11:20 | 39.38654 | -111.71279 | 35817 ft | 372 kts | 262° |
| 2026-05-04 11:22 | 39.35892 | -111.97843 | 35805 ft | 374 kts | 261° |
| 2026-05-04 11:23 | 39.35194 | -112.04461 | 35806 ft | 374 kts | 261° |
| 2026-05-04 11:25 | 39.32711 | -112.27730 | 35810 ft | 376 kts | 261° |
| 2026-05-04 11:25 | 39.31989 | -112.34413 | 35797 ft | 375 kts | 261° |
| 2026-05-04 11:27 | 39.28704 | -112.64509 | 35792 ft | 378 kts | 261° |
| 2026-05-04 11:28 | 39.27964 | -112.71234 | 35791 ft | 378 kts | 261° |
| 2026-05-04 11:28 | 39.27221 | -112.77954 | 35788 ft | 377 kts | 260° |
| 2026-05-04 11:29 | 39.26475 | -112.84661 | 35789 ft | 378 kts | 260° |
| 2026-05-04 11:29 | 39.25729 | -112.91336 | 35786 ft | 379 kts | 260° |
| 2026-05-04 11:33 | 39.20350 | -113.38436 | 35786 ft | 380 kts | 259° |
| 2026-05-04 11:33 | 39.19562 | -113.45176 | 35786 ft | 380 kts | 259° |
| 2026-05-04 11:34 | 39.18775 | -113.51886 | 35781 ft | 382 kts | 259° |
| 2026-05-04 11:34 | 39.17978 | -113.58656 | 35782 ft | 382 kts | 259° |
| 2026-05-04 11:35 | 39.17178 | -113.65414 | 35775 ft | 381 kts | 259° |
| 2026-05-04 11:35 | 39.16371 | -113.72175 | 35778 ft | 382 kts | 259° |
| 2026-05-04 11:36 | 39.15563 | -113.78933 | 35771 ft | 382 kts | 259° |
| 2026-05-04 11:36 | 39.14760 | -113.85627 | 35804 ft | 375 kts | 259° |
| 2026-05-04 11:37 | 39.13953 | -113.92310 | 35777 ft | 380 kts | 259° |
| 2026-05-04 11:37 | 39.13129 | -113.99081 | 35775 ft | 384 kts | 259° |
| 2026-05-04 11:38 | 39.12301 | -114.05868 | 35777 ft | 383 kts | 259° |
| 2026-05-04 11:38 | 39.11476 | -114.12600 | 35766 ft | 383 kts | 259° |
| 2026-05-04 11:39 | 39.10641 | -114.19375 | 35778 ft | 383 kts | 259° |
| 2026-05-04 11:41 | 39.07692 | -114.43040 | 35774 ft | 384 kts | 258° |
| 2026-05-04 11:41 | 39.06837 | -114.49821 | 35778 ft | 384 kts | 258° |
| 2026-05-04 11:42 | 39.05979 | -114.56593 | 35796 ft | 384 kts | 258° |
| 2026-05-04 11:42 | 39.05119 | -114.63364 | 35824 ft | 384 kts | 258° |
| 2026-05-04 11:43 | 39.04252 | -114.70143 | 35826 ft | 384 kts | 258° |
| 2026-05-04 11:43 | 39.03388 | -114.76869 | 35835 ft | 384 kts | 258° |
| 2026-05-04 11:44 | 39.02514 | -114.83639 | 35824 ft | 384 kts | 258° |
| 2026-05-04 11:44 | 39.01636 | -114.90408 | 35825 ft | 384 kts | 258° |
| 2026-05-04 11:45 | 39.00753 | -114.97187 | 35804 ft | 385 kts | 258° |
| 2026-05-04 11:45 | 38.99871 | -115.03923 | 35783 ft | 385 kts | 258° |
| 2026-05-04 11:46 | 38.98977 | -115.10722 | 35765 ft | 387 kts | 258° |
| 2026-05-04 11:46 | 38.98076 | -115.17539 | 35764 ft | 387 kts | 257° |
| 2026-05-04 11:47 | 38.97172 | -115.24356 | 35763 ft | 387 kts | 257° |
| 2026-05-04 11:47 | 38.96270 | -115.31122 | 35770 ft | 387 kts | 257° |
| 2026-05-04 11:48 | 38.95357 | -115.37934 | 35772 ft | 387 kts | 257° |
| 2026-05-04 11:48 | 38.94439 | -115.44766 | 35775 ft | 389 kts | 257° |
| 2026-05-04 11:49 | 38.93515 | -115.51606 | 35776 ft | 388 kts | 257° |
| 2026-05-04 11:49 | 38.92595 | -115.58375 | 35783 ft | 387 kts | 257° |
| 2026-05-04 11:50 | 38.91666 | -115.65182 | 35804 ft | 387 kts | 257° |
| 2026-05-04 11:50 | 38.90733 | -115.71988 | 35796 ft | 387 kts | 257° |
| 2026-05-04 11:51 | 38.89798 | -115.78786 | 35812 ft | 387 kts | 257° |
| 2026-05-04 11:51 | 38.88863 | -115.85536 | 35815 ft | 387 kts | 257° |
| 2026-05-04 11:52 | 38.87920 | -115.92332 | 35826 ft | 387 kts | 257° |
| 2026-05-04 11:52 | 38.86973 | -115.99125 | 35826 ft | 387 kts | 257° |
| 2026-05-04 11:53 | 38.86018 | -116.05936 | 35839 ft | 388 kts | 257° |
| 2026-05-04 11:53 | 38.85067 | -116.12700 | 35839 ft | 388 kts | 257° |
| 2026-05-04 11:55 | 38.81191 | -116.39938 | 35873 ft | 391 kts | 256° |
| 2026-05-04 11:56 | 38.80206 | -116.46788 | 35873 ft | 391 kts | 256° |
| 2026-05-04 11:56 | 38.79217 | -116.53639 | 35883 ft | 391 kts | 256° |
| 2026-05-04 11:57 | 38.78222 | -116.60492 | 35888 ft | 392 kts | 256° |
| 2026-05-04 11:57 | 38.77229 | -116.67310 | 35890 ft | 392 kts | 256° |
| 2026-05-04 11:58 | 38.76224 | -116.74180 | 35889 ft | 392 kts | 256° |
| 2026-05-04 11:58 | 38.75216 | -116.81044 | 35885 ft | 392 kts | 256° |
| 2026-05-04 11:59 | 38.74205 | -116.87896 | 35889 ft | 392 kts | 256° |
| 2026-05-04 11:59 | 38.73187 | -116.94768 | 35887 ft | 394 kts | 256° |
| 2026-05-04 12:00 | 38.72165 | -117.01629 | 35873 ft | 395 kts | 256° |
| 2026-05-04 12:00 | 38.71131 | -117.08547 | 35875 ft | 397 kts | 256° |
| 2026-05-04 12:01 | 38.70085 | -117.15512 | 35865 ft | 399 kts | 256° |
| 2026-05-04 12:02 | 38.66380 | -117.39965 | 35862 ft | 401 kts | 256° |
| 2026-05-04 12:03 | 38.65309 | -117.46970 | 35851 ft | 401 kts | 256° |
| 2026-05-04 12:03 | 38.64238 | -117.53939 | 35854 ft | 403 kts | 256° |
| 2026-05-04 12:04 | 38.63150 | -117.60990 | 35855 ft | 404 kts | 255° |
| 2026-05-04 12:04 | 38.62058 | -117.68040 | 35854 ft | 404 kts | 255° |
| 2026-05-04 12:05 | 38.60963 | -117.75086 | 35847 ft | 404 kts | 255° |
| 2026-05-04 12:05 | 38.59870 | -117.82084 | 35848 ft | 404 kts | 255° |
| 2026-05-04 12:06 | 38.58765 | -117.89125 | 35847 ft | 404 kts | 255° |
| 2026-05-04 12:06 | 38.57658 | -117.96160 | 35850 ft | 404 kts | 255° |
| 2026-05-04 12:07 | 38.56539 | -118.03204 | 35848 ft | 404 kts | 255° |
| 2026-05-04 12:07 | 38.55324 | -118.10159 | 35848 ft | 404 kts | 254° |
| 2026-05-04 12:08 | 38.54037 | -118.17166 | 35844 ft | 406 kts | 253° |
| 2026-05-04 12:08 | 38.52744 | -118.24186 | 35858 ft | 406 kts | 253° |
| 2026-05-04 12:09 | 38.51458 | -118.31200 | 35877 ft | 406 kts | 254° |
| 2026-05-04 12:09 | 38.50172 | -118.38217 | 35907 ft | 406 kts | 254° |
| 2026-05-04 12:10 | 38.48889 | -118.45196 | 35913 ft | 407 kts | 253° |
| 2026-05-04 12:10 | 38.47589 | -118.52240 | 35926 ft | 408 kts | 253° |
| 2026-05-04 12:11 | 38.46283 | -118.59288 | 35934 ft | 408 kts | 253° |
| 2026-05-04 12:11 | 38.44982 | -118.66285 | 35930 ft | 408 kts | 253° |
| 2026-05-04 12:12 | 38.43668 | -118.73326 | 35919 ft | 409 kts | 253° |
| 2026-05-04 12:12 | 38.42343 | -118.80395 | 35910 ft | 410 kts | 253° |
| 2026-05-04 12:14 | 38.37002 | -119.08661 | 35881 ft | 414 kts | 253° |
| 2026-05-04 12:15 | 38.35645 | -119.15784 | 35901 ft | 414 kts | 253° |
| 2026-05-04 12:15 | 38.34283 | -119.22905 | 35898 ft | 414 kts | 253° |
| 2026-05-04 12:16 | 38.32923 | -119.29984 | 35917 ft | 415 kts | 253° |
| 2026-05-04 12:16 | 38.31546 | -119.37130 | 35926 ft | 417 kts | 253° |
| 2026-05-04 12:17 | 38.30151 | -119.44345 | 35923 ft | 422 kts | 253° |
| 2026-05-04 12:17 | 38.28742 | -119.51606 | 35942 ft | 422 kts | 253° |
| 2026-05-04 12:18 | 38.27339 | -119.58814 | 35938 ft | 423 kts | 253° |
| 2026-05-04 12:18 | 38.25915 | -119.66099 | 35949 ft | 425 kts | 253° |
| 2026-05-04 12:19 | 38.24483 | -119.73393 | 35962 ft | 425 kts | 253° |
| 2026-05-04 12:19 | 38.23049 | -119.80686 | 35957 ft | 425 kts | 253° |
| 2026-05-04 12:20 | 38.21618 | -119.87935 | 35966 ft | 426 kts | 253° |
| 2026-05-04 12:20 | 38.20167 | -119.95254 | 35973 ft | 428 kts | 253° |
| 2026-05-04 12:21 | 38.18709 | -120.02585 | 35973 ft | 428 kts | 253° |
| 2026-05-04 12:21 | 38.17247 | -120.09915 | 35983 ft | 428 kts | 253° |
| 2026-05-04 12:22 | 38.15778 | -120.17249 | 35999 ft | 429 kts | 253° |
| 2026-05-04 12:22 | 38.14310 | -120.24551 | 35997 ft | 430 kts | 253° |
| 2026-05-04 12:23 | 38.12825 | -120.31909 | 36017 ft | 430 kts | 253° |
| 2026-05-04 12:23 | 38.11336 | -120.39263 | 36019 ft | 430 kts | 253° |
| 2026-05-04 12:24 | 38.09842 | -120.46622 | 36033 ft | 431 kts | 253° |
| 2026-05-04 12:24 | 38.08350 | -120.53942 | 36030 ft | 431 kts | 253° |
| 2026-05-04 12:25 | 38.06844 | -120.61306 | 36039 ft | 431 kts | 253° |
| 2026-05-04 12:25 | 38.05332 | -120.68674 | 36040 ft | 431 kts | 253° |
| 2026-05-04 12:26 | 38.03815 | -120.76041 | 36033 ft | 431 kts | 253° |
| 2026-05-04 12:26 | 38.02305 | -120.83348 | 36027 ft | 431 kts | 253° |
| 2026-05-04 12:27 | 38.00780 | -120.90704 | 36025 ft | 431 kts | 253° |
| 2026-05-04 12:27 | 37.99249 | -120.98061 | 36007 ft | 432 kts | 253° |
| 2026-05-04 12:28 | 37.97708 | -121.05436 | 36010 ft | 434 kts | 253° |
| 2026-05-04 12:28 | 37.96160 | -121.12827 | 36013 ft | 434 kts | 253° |
| 2026-05-04 12:29 | 37.94617 | -121.20170 | 36015 ft | 434 kts | 253° |
| 2026-05-04 12:29 | 37.93057 | -121.27565 | 36019 ft | 435 kts | 253° |
| 2026-05-04 12:30 | 37.91489 | -121.34973 | 36018 ft | 437 kts | 253° |
| 2026-05-04 12:30 | 37.89910 | -121.42408 | 36016 ft | 437 kts | 253° |
| 2026-05-04 12:31 | 37.88339 | -121.49780 | 36012 ft | 437 kts | 253° |
| 2026-05-04 12:31 | 37.86751 | -121.57210 | 36014 ft | 438 kts | 253° |
| 2026-05-04 12:32 | 37.84354 | -121.68377 | 36022 ft | 439 kts | 253° |
| 2026-05-04 12:33 | 37.82747 | -121.75831 | 36024 ft | 439 kts | 253° |
| 2026-05-04 12:33 | 37.81147 | -121.83226 | 36032 ft | 439 kts | 253° |
| 2026-05-04 12:34 | 37.79522 | -121.90710 | 36027 ft | 444 kts | 253° |
| 2026-05-04 12:34 | 37.77881 | -121.98245 | 36031 ft | 445 kts | 253° |
| 2026-05-04 12:35 | 37.76234 | -122.05783 | 36034 ft | 445 kts | 253° |
| 2026-05-04 12:35 | 37.74581 | -122.13324 | 36054 ft | 445 kts | 253° |
| 2026-05-04 12:36 | 37.72934 | -122.20814 | 36055 ft | 446 kts | 253° |
| 2026-05-04 12:36 | 37.71167 | -122.28311 | 36054 ft | 446 kts | 251° |
| 2026-05-04 12:37 | 37.69297 | -122.35775 | 36046 ft | 446 kts | 251° |
| 2026-05-04 12:37 | 37.67413 | -122.43249 | 36037 ft | 449 kts | 251° |
| 2026-05-04 12:38 | 37.65540 | -122.50719 | 36038 ft | 450 kts | 252° |
| 2026-05-04 12:38 | 37.63653 | -122.58247 | 36041 ft | 450 kts | 252° |
| 2026-05-04 12:39 | 37.61765 | -122.65768 | 36041 ft | 450 kts | 252° |
| 2026-05-04 12:39 | 37.59871 | -122.73288 | 36037 ft | 450 kts | 251° |
| 2026-05-04 12:40 | 37.57987 | -122.80743 | 36036 ft | 450 kts | 251° |
| 2026-05-04 12:40 | 37.56084 | -122.88246 | 36029 ft | 449 kts | 251° |
| 2026-05-04 12:41 | 37.54180 | -122.95734 | 36033 ft | 450 kts | 251° |
| 2026-05-04 12:41 | 37.52264 | -123.03249 | 36029 ft | 451 kts | 251° |
| 2026-05-04 12:42 | 37.50664 | -123.09503 | 36033 ft | 451 kts | 251° |
| 2026-05-04 12:42 | 37.48423 | -123.18240 | 36032 ft | 451 kts | 251° |
| 2026-05-04 12:43 | 37.46487 | -123.25764 | 36033 ft | 452 kts | 251° |
| 2026-05-04 12:43 | 37.44546 | -123.33285 | 36032 ft | 452 kts | 251° |
| 2026-05-04 12:44 | 37.42599 | -123.40806 | 36031 ft | 452 kts | 251° |
| 2026-05-04 12:44 | 37.40661 | -123.48272 | 36032 ft | 452 kts | 251° |
| 2026-05-04 12:45 | 37.38704 | -123.55787 | 36032 ft | 452 kts | 251° |
| 2026-05-04 12:45 | 37.36743 | -123.63295 | 36032 ft | 452 kts | 251° |
| 2026-05-04 12:46 | 37.35109 | -123.69535 | 36035 ft | 452 kts | 251° |
| 2026-05-04 12:46 | 37.33138 | -123.77042 | 36032 ft | 453 kts | 251° |
| 2026-05-04 12:47 | 37.30838 | -123.85774 | 36033 ft | 453 kts | 251° |
| 2026-05-04 12:47 | 37.29188 | -123.92017 | 36032 ft | 453 kts | 251° |
| 2026-05-04 12:48 | 37.27200 | -123.99524 | 36033 ft | 453 kts | 251° |
| 2026-05-04 12:48 | 37.25204 | -124.07039 | 36032 ft | 454 kts | 251° |
| 2026-05-04 12:49 | 37.22877 | -124.15770 | 36032 ft | 454 kts | 251° |
| 2026-05-04 12:49 | 37.21194 | -124.22065 | 36034 ft | 454 kts | 251° |
| 2026-05-04 12:50 | 37.19193 | -124.29535 | 36036 ft | 456 kts | 251° |
| 2026-05-04 12:50 | 37.17167 | -124.37073 | 36034 ft | 456 kts | 251° |
| 2026-05-04 12:51 | 37.15137 | -124.44603 | 36033 ft | 456 kts | 251° |
| 2026-05-04 12:51 | 37.13102 | -124.52131 | 36034 ft | 456 kts | 251° |
| 2026-05-04 12:52 | 37.11074 | -124.59614 | 36031 ft | 457 kts | 251° |
| 2026-05-04 12:52 | 37.09026 | -124.67148 | 36034 ft | 457 kts | 251° |
| 2026-05-04 12:53 | 37.06975 | -124.74670 | 36037 ft | 457 kts | 251° |
| 2026-05-04 12:53 | 37.04918 | -124.82195 | 36034 ft | 457 kts | 251° |
| 2026-05-04 12:54 | 37.02854 | -124.89721 | 36035 ft | 457 kts | 251° |
| 2026-05-04 12:54 | 37.00799 | -124.97196 | 36034 ft | 457 kts | 251° |
| 2026-05-04 12:55 | 36.98745 | -125.04723 | 36034 ft | 458 kts | 251° |
| 2026-05-04 12:55 | 36.96709 | -125.12293 | 36035 ft | 461 kts | 251° |
| 2026-05-04 12:56 | 36.94662 | -125.19894 | 36034 ft | 461 kts | 251° |
| 2026-05-04 12:56 | 36.92621 | -125.27438 | 36033 ft | 462 kts | 252° |
| 2026-05-04 12:57 | 36.90554 | -125.35049 | 36033 ft | 463 kts | 251° |
| 2026-05-04 12:57 | 36.88476 | -125.42675 | 36034 ft | 464 kts | 251° |
| 2026-05-04 12:58 | 36.86393 | -125.50300 | 36034 ft | 464 kts | 251° |
| 2026-05-04 12:58 | 36.84320 | -125.57866 | 36034 ft | 463 kts | 251° |
| 2026-05-04 12:59 | 36.82230 | -125.65469 | 36034 ft | 463 kts | 251° |
| 2026-05-04 12:59 | 36.80137 | -125.73066 | 36034 ft | 463 kts | 251° |
| 2026-05-04 13:00 | 36.78035 | -125.80670 | 36034 ft | 464 kts | 252° |
| 2026-05-04 13:00 | 36.75941 | -125.88226 | 36037 ft | 465 kts | 251° |
| 2026-05-04 13:01 | 36.73825 | -125.95841 | 36037 ft | 465 kts | 251° |
| 2026-05-04 13:01 | 36.71704 | -126.03449 | 36034 ft | 465 kts | 251° |
| 2026-05-04 13:02 | 36.69579 | -126.11053 | 36031 ft | 465 kts | 251° |
| 2026-05-04 13:02 | 36.67447 | -126.18657 | 36031 ft | 465 kts | 251° |
| 2026-05-04 13:03 | 36.65327 | -126.26198 | 36026 ft | 465 kts | 251° |
| 2026-05-04 13:03 | 36.63185 | -126.33799 | 36032 ft | 466 kts | 251° |
| 2026-05-04 13:04 | 36.61035 | -126.41405 | 36032 ft | 466 kts | 251° |
| 2026-05-04 13:04 | 36.58878 | -126.49012 | 36029 ft | 466 kts | 251° |
| 2026-05-04 13:05 | 36.56732 | -126.56560 | 36029 ft | 466 kts | 251° |
| 2026-05-04 13:05 | 36.54566 | -126.64159 | 36029 ft | 466 kts | 251° |
| 2026-05-04 13:06 | 36.52394 | -126.71758 | 36030 ft | 466 kts | 251° |
| 2026-05-04 13:06 | 36.50219 | -126.79345 | 36028 ft | 467 kts | 251° |
| 2026-05-04 13:07 | 36.48049 | -126.86897 | 36029 ft | 467 kts | 251° |
| 2026-05-04 13:07 | 36.45860 | -126.94491 | 36029 ft | 467 kts | 251° |
| 2026-05-04 13:08 | 36.43662 | -127.02080 | 36025 ft | 467 kts | 251° |
| 2026-05-04 13:08 | 36.41455 | -127.09676 | 36029 ft | 467 kts | 251° |
| 2026-05-04 13:09 | 36.39261 | -127.17210 | 36030 ft | 467 kts | 251° |
| 2026-05-04 13:09 | 36.37047 | -127.24792 | 36023 ft | 467 kts | 251° |
| 2026-05-04 13:10 | 36.34825 | -127.32380 | 36024 ft | 468 kts | 251° |
| 2026-05-04 13:10 | 36.32595 | -127.39976 | 36026 ft | 469 kts | 251° |
| 2026-05-04 13:11 | 36.30361 | -127.47565 | 36028 ft | 469 kts | 251° |
| 2026-05-04 13:11 | 36.28136 | -127.55100 | 36026 ft | 469 kts | 251° |
| 2026-05-04 13:12 | 36.25891 | -127.62687 | 36025 ft | 469 kts | 251° |
| 2026-05-04 13:12 | 36.23638 | -127.70275 | 36028 ft | 469 kts | 251° |
| 2026-05-04 13:13 | 36.21381 | -127.77860 | 36022 ft | 470 kts | 251° |
| 2026-05-04 13:13 | 36.19116 | -127.85450 | 36023 ft | 470 kts | 251° |
| 2026-05-04 13:14 | 36.16861 | -127.92987 | 36020 ft | 470 kts | 251° |
| 2026-05-04 13:14 | 36.14586 | -128.00568 | 36020 ft | 470 kts | 252° |
| 2026-05-04 13:15 | 36.12304 | -128.08156 | 36018 ft | 471 kts | 251° |
| 2026-05-04 13:15 | 36.10014 | -128.15748 | 36020 ft | 471 kts | 251° |
| 2026-05-04 13:16 | 36.07735 | -128.23284 | 36020 ft | 471 kts | 252° |
| 2026-05-04 13:16 | 36.05431 | -128.30881 | 36021 ft | 472 kts | 252° |
| 2026-05-04 13:17 | 36.03123 | -128.38473 | 36021 ft | 472 kts | 252° |
| 2026-05-04 13:17 | 36.00805 | -128.46075 | 36021 ft | 472 kts | 251° |
| 2026-05-04 13:18 | 35.98486 | -128.53664 | 36020 ft | 473 kts | 251° |
| 2026-05-04 13:18 | 35.96175 | -128.61202 | 36021 ft | 473 kts | 251° |
| 2026-05-04 13:19 | 35.93846 | -128.68784 | 36019 ft | 473 kts | 251° |
| 2026-05-04 13:19 | 35.91510 | -128.76367 | 36024 ft | 473 kts | 251° |
| 2026-05-04 13:20 | 35.89169 | -128.83944 | 36023 ft | 473 kts | 251° |
| 2026-05-04 13:20 | 35.86840 | -128.91465 | 36017 ft | 473 kts | 252° |
| 2026-05-04 13:21 | 35.84489 | -128.99035 | 36026 ft | 473 kts | 251° |
| 2026-05-04 13:21 | 35.82130 | -129.06613 | 36026 ft | 474 kts | 251° |
| 2026-05-04 13:22 | 35.79765 | -129.14189 | 36035 ft | 474 kts | 251° |
| 2026-05-04 13:22 | 35.77399 | -129.21750 | 36037 ft | 473 kts | 251° |
| 2026-05-04 13:23 | 35.75045 | -129.29252 | 36033 ft | 473 kts | 251° |
| 2026-05-04 13:23 | 35.72669 | -129.36805 | 36026 ft | 473 kts | 252° |
| 2026-05-04 13:24 | 35.70288 | -129.44355 | 36031 ft | 474 kts | 252° |
| 2026-05-04 13:24 | 35.67916 | -129.51858 | 36035 ft | 474 kts | 251° |
| 2026-05-04 13:25 | 35.64326 | -129.63173 | 36038 ft | 474 kts | 252° |
| 2026-05-04 13:25 | 35.61926 | -129.70715 | 36038 ft | 474 kts | 252° |
| 2026-05-04 13:26 | 35.59524 | -129.78245 | 36042 ft | 474 kts | 251° |
| 2026-05-04 13:26 | 35.57131 | -129.85725 | 36044 ft | 473 kts | 252° |
| 2026-05-04 13:27 | 35.54719 | -129.93249 | 36044 ft | 473 kts | 252° |
| 2026-05-04 13:27 | 35.52304 | -130.00761 | 36043 ft | 473 kts | 252° |
| 2026-05-04 13:28 | 35.49884 | -130.08267 | 36046 ft | 473 kts | 252° |
| 2026-05-04 13:28 | 35.47477 | -130.15719 | 36049 ft | 473 kts | 252° |
| 2026-05-04 13:29 | 35.45051 | -130.23208 | 36051 ft | 473 kts | 252° |
| 2026-05-04 13:29 | 35.42620 | -130.30694 | 36051 ft | 473 kts | 252° |
| 2026-05-04 13:30 | 35.40185 | -130.38173 | 36054 ft | 472 kts | 252° |
| 2026-05-04 13:30 | 35.37743 | -130.45657 | 36056 ft | 473 kts | 252° |
| 2026-05-04 13:31 | 35.35311 | -130.53092 | 36057 ft | 474 kts | 252° |
| 2026-05-04 13:31 | 35.32854 | -130.60585 | 36059 ft | 475 kts | 252° |
| 2026-05-04 13:32 | 35.30388 | -130.68083 | 36065 ft | 475 kts | 252° |
| 2026-05-04 13:32 | 35.27917 | -130.75579 | 36064 ft | 475 kts | 252° |
| 2026-05-04 13:33 | 35.25459 | -130.83017 | 36069 ft | 475 kts | 252° |
| 2026-05-04 13:33 | 35.22981 | -130.90500 | 36065 ft | 475 kts | 251° |
| 2026-05-04 13:34 | 35.20496 | -130.97980 | 36068 ft | 474 kts | 252° |
| 2026-05-04 13:34 | 35.18013 | -131.05441 | 36070 ft | 473 kts | 252° |
| 2026-05-04 13:35 | 35.14283 | -131.16611 | 36072 ft | 473 kts | 252° |
| 2026-05-04 13:36 | 35.11809 | -131.23997 | 36076 ft | 472 kts | 252° |
| 2026-05-04 13:36 | 35.09316 | -131.31422 | 36081 ft | 472 kts | 252° |
| 2026-05-04 13:37 | 35.06821 | -131.38837 | 36088 ft | 472 kts | 252° |
| 2026-05-04 13:37 | 35.04327 | -131.46229 | 36096 ft | 471 kts | 252° |
| 2026-05-04 13:38 | 35.01849 | -131.53558 | 36095 ft | 471 kts | 252° |
| 2026-05-04 13:38 | 34.99349 | -131.60931 | 36092 ft | 470 kts | 252° |
| 2026-05-04 13:39 | 34.96855 | -131.68271 | 36091 ft | 468 kts | 252° |
| 2026-05-04 13:39 | 34.94355 | -131.75612 | 36096 ft | 468 kts | 252° |
| 2026-05-04 13:40 | 34.91873 | -131.82882 | 36096 ft | 467 kts | 252° |
| 2026-05-04 13:40 | 34.89373 | -131.90185 | 36100 ft | 467 kts | 252° |
| 2026-05-04 13:41 | 34.86872 | -131.97479 | 36103 ft | 467 kts | 252° |
| 2026-05-04 13:41 | 34.84370 | -132.04754 | 36105 ft | 465 kts | 252° |
| 2026-05-04 13:42 | 34.80639 | -132.15575 | 36106 ft | 464 kts | 252° |
| 2026-05-04 13:42 | 34.78139 | -132.22806 | 36109 ft | 463 kts | 253° |
| 2026-05-04 13:43 | 34.75644 | -132.29999 | 36110 ft | 460 kts | 253° |
| 2026-05-04 13:43 | 34.73153 | -132.37171 | 36111 ft | 460 kts | 253° |
| 2026-05-04 13:44 | 34.70660 | -132.44333 | 36118 ft | 459 kts | 253° |
| 2026-05-04 13:44 | 34.68188 | -132.51413 | 36121 ft | 457 kts | 253° |
| 2026-05-04 13:45 | 34.65702 | -132.58522 | 36113 ft | 457 kts | 253° |
| 2026-05-04 13:45 | 34.63211 | -132.65627 | 36119 ft | 457 kts | 254° |
| 2026-05-04 13:46 | 34.60720 | -132.72718 | 36124 ft | 456 kts | 254° |
| 2026-05-04 13:46 | 34.58241 | -132.79755 | 36124 ft | 456 kts | 254° |
| 2026-05-04 13:47 | 34.55743 | -132.86837 | 36129 ft | 456 kts | 254° |
| 2026-05-04 13:47 | 34.53239 | -132.93914 | 36129 ft | 457 kts | 254° |
| 2026-05-04 13:48 | 34.50730 | -133.00992 | 36127 ft | 457 kts | 253° |
| 2026-05-04 13:48 | 34.48232 | -133.08024 | 36129 ft | 458 kts | 254° |
| 2026-05-04 13:49 | 34.45710 | -133.15107 | 36135 ft | 458 kts | 254° |
| 2026-05-04 13:49 | 34.43184 | -133.22181 | 36135 ft | 458 kts | 253° |
| 2026-05-04 13:50 | 34.40655 | -133.29249 | 36142 ft | 457 kts | 254° |
| 2026-05-04 13:50 | 34.38146 | -133.36248 | 36141 ft | 456 kts | 254° |
| 2026-05-04 13:51 | 34.35619 | -133.43285 | 36124 ft | 456 kts | 254° |
| 2026-05-04 13:51 | 34.33091 | -133.50302 | 36142 ft | 454 kts | 255° |
| 2026-05-04 13:52 | 34.29309 | -133.60776 | 36146 ft | 453 kts | 255° |
| 2026-05-04 13:53 | 34.26801 | -133.67706 | 36156 ft | 452 kts | 255° |
| 2026-05-04 13:53 | 34.24283 | -133.74645 | 36155 ft | 450 kts | 255° |
| 2026-05-04 13:54 | 34.20503 | -133.85041 | 36143 ft | 450 kts | 256° |
| 2026-05-04 13:55 | 34.16735 | -133.95365 | 36157 ft | 450 kts | 256° |
| 2026-05-04 13:55 | 34.12940 | -134.05732 | 36150 ft | 450 kts | 256° |
| 2026-05-04 13:56 | 34.10407 | -134.12631 | 36168 ft | 449 kts | 256° |
| 2026-05-04 13:57 | 34.06625 | -134.22909 | 36135 ft | 449 kts | 256° |
| 2026-05-04 13:58 | 34.01555 | -134.36635 | 36167 ft | 448 kts | 257° |
| 2026-05-04 13:58 | 33.97750 | -134.46909 | 36166 ft | 447 kts | 256° |
| 2026-05-04 13:59 | 33.95211 | -134.53746 | 36174 ft | 447 kts | 256° |
| 2026-05-04 14:00 | 33.91417 | -134.63939 | 36160 ft | 447 kts | 256° |
| 2026-05-04 14:00 | 33.87602 | -134.74153 | 36182 ft | 445 kts | 256° |
| 2026-05-04 14:01 | 33.85058 | -134.80948 | 36182 ft | 446 kts | 256° |
| 2026-05-04 14:02 | 33.81251 | -134.91092 | 36182 ft | 446 kts | 256° |
| 2026-05-04 14:02 | 33.78695 | -134.97883 | 36183 ft | 446 kts | 256° |
| 2026-05-04 14:03 | 33.76136 | -135.04669 | 36182 ft | 445 kts | 256° |
| 2026-05-04 14:03 | 33.73577 | -135.11437 | 36183 ft | 444 kts | 256° |
| 2026-05-04 14:04 | 33.69757 | -135.21523 | 36175 ft | 444 kts | 255° |
| 2026-05-04 14:04 | 33.67193 | -135.28277 | 36189 ft | 445 kts | 255° |
| 2026-05-04 14:05 | 33.63334 | -135.38411 | 36189 ft | 445 kts | 255° |
| 2026-05-04 14:06 | 33.60759 | -135.45158 | 36192 ft | 445 kts | 255° |
| 2026-05-04 14:06 | 33.58197 | -135.51855 | 36195 ft | 445 kts | 255° |
| 2026-05-04 14:07 | 33.55615 | -135.58592 | 36179 ft | 445 kts | 255° |
| 2026-05-04 14:07 | 33.53028 | -135.65330 | 36190 ft | 445 kts | 255° |
| 2026-05-04 14:08 | 33.50433 | -135.72072 | 36200 ft | 445 kts | 254° |
| 2026-05-04 14:08 | 33.47853 | -135.78763 | 36185 ft | 445 kts | 254° |
| 2026-05-04 14:09 | 33.43950 | -135.88862 | 36199 ft | 446 kts | 254° |
| 2026-05-04 14:10 | 33.40033 | -135.98963 | 36197 ft | 445 kts | 253° |
| 2026-05-04 14:10 | 33.37437 | -136.05641 | 36203 ft | 446 kts | 253° |
| 2026-05-04 14:11 | 33.34818 | -136.12368 | 36202 ft | 446 kts | 253° |
| 2026-05-04 14:11 | 33.30886 | -136.22437 | 36212 ft | 445 kts | 253° |
| 2026-05-04 14:12 | 33.28265 | -136.29136 | 36211 ft | 445 kts | 253° |
| 2026-05-04 14:13 | 33.24340 | -136.39139 | 36212 ft | 445 kts | 252° |
| 2026-05-04 14:13 | 33.21712 | -136.45821 | 36213 ft | 444 kts | 252° |
| 2026-05-04 14:14 | 33.19081 | -136.52498 | 36211 ft | 444 kts | 252° |
| 2026-05-04 14:14 | 33.15149 | -136.62453 | 36216 ft | 444 kts | 252° |
| 2026-05-04 14:15 | 33.09878 | -136.75749 | 36220 ft | 443 kts | 252° |
| 2026-05-04 14:16 | 33.05919 | -136.85706 | 36226 ft | 443 kts | 251° |
| 2026-05-04 14:17 | 33.01975 | -136.95593 | 36228 ft | 442 kts | 251° |
| 2026-05-04 14:18 | 32.98008 | -137.05511 | 36209 ft | 442 kts | 251° |
| 2026-05-04 14:19 | 32.92707 | -137.18717 | 36217 ft | 441 kts | 251° |
| 2026-05-04 14:19 | 32.90073 | -137.25264 | 36230 ft | 442 kts | 251° |
| 2026-05-04 14:20 | 32.87417 | -137.31850 | 36230 ft | 441 kts | 251° |
| 2026-05-04 14:20 | 32.84759 | -137.38426 | 36233 ft | 441 kts | 251° |
| 2026-05-04 14:21 | 32.80788 | -137.48232 | 36235 ft | 441 kts | 250° |
| 2026-05-04 14:21 | 32.78125 | -137.54793 | 36236 ft | 441 kts | 250° |
| 2026-05-04 14:22 | 32.75457 | -137.61353 | 36234 ft | 441 kts | 250° |
| 2026-05-04 14:22 | 32.72786 | -137.67908 | 36238 ft | 441 kts | 250° |
| 2026-05-04 14:23 | 32.68792 | -137.77688 | 36233 ft | 441 kts | 250° |
| 2026-05-04 14:24 | 32.66113 | -137.84233 | 36241 ft | 441 kts | 250° |
| 2026-05-04 14:24 | 32.63429 | -137.90776 | 36241 ft | 441 kts | 250° |
| 2026-05-04 14:25 | 32.60744 | -137.97311 | 36243 ft | 441 kts | 250° |
| 2026-05-04 14:25 | 32.56729 | -138.07058 | 36243 ft | 440 kts | 249° |
| 2026-05-04 14:26 | 32.54037 | -138.13580 | 36243 ft | 440 kts | 249° |
| 2026-05-04 14:26 | 32.51343 | -138.20095 | 36249 ft | 440 kts | 249° |
| 2026-05-04 14:27 | 32.48644 | -138.26609 | 36237 ft | 440 kts | 249° |
| 2026-05-04 14:27 | 32.45960 | -138.33075 | 36247 ft | 440 kts | 249° |
| 2026-05-04 14:28 | 32.43255 | -138.39579 | 36250 ft | 440 kts | 249° |
| 2026-05-04 14:28 | 32.40549 | -138.46075 | 36245 ft | 440 kts | 249° |
| 2026-05-04 14:29 | 32.35142 | -138.59017 | 36250 ft | 440 kts | 249° |
| 2026-05-04 14:30 | 32.32425 | -138.65504 | 36242 ft | 440 kts | 249° |
| 2026-05-04 14:31 | 32.28347 | -138.75217 | 36255 ft | 440 kts | 248° |
| 2026-05-04 14:32 | 32.22916 | -138.88112 | 36254 ft | 440 kts | 248° |
| 2026-05-04 14:32 | 32.20186 | -138.94574 | 36258 ft | 440 kts | 248° |
| 2026-05-04 14:33 | 32.17457 | -139.01026 | 36258 ft | 440 kts | 248° |
| 2026-05-04 14:33 | 32.14721 | -139.07481 | 36254 ft | 439 kts | 248° |
| 2026-05-04 14:34 | 32.12003 | -139.13881 | 36260 ft | 439 kts | 248° |
| 2026-05-04 14:34 | 32.09264 | -139.20320 | 36256 ft | 439 kts | 248° |
| 2026-05-04 14:35 | 32.06522 | -139.26756 | 36254 ft | 439 kts | 248° |
| 2026-05-04 14:35 | 32.03777 | -139.33185 | 36253 ft | 439 kts | 248° |
| 2026-05-04 14:36 | 32.01033 | -139.39602 | 36256 ft | 439 kts | 248° |
| 2026-05-04 14:36 | 31.98302 | -139.45977 | 36260 ft | 439 kts | 248° |
| 2026-05-04 14:37 | 31.95550 | -139.52388 | 36258 ft | 439 kts | 248° |
| 2026-05-04 14:37 | 31.92797 | -139.58791 | 36256 ft | 438 kts | 247° |
| 2026-05-04 14:38 | 31.90041 | -139.65191 | 36259 ft | 438 kts | 247° |
| 2026-05-04 14:38 | 31.87284 | -139.71582 | 36259 ft | 438 kts | 247° |
| 2026-05-04 14:39 | 31.84543 | -139.77923 | 36259 ft | 438 kts | 247° |
| 2026-05-04 14:39 | 31.81783 | -139.84298 | 36260 ft | 438 kts | 247° |
| 2026-05-04 14:40 | 31.77634 | -139.93861 | 36260 ft | 438 kts | 247° |
| 2026-05-04 14:40 | 31.74883 | -140.00186 | 36259 ft | 437 kts | 247° |
| 2026-05-04 14:41 | 31.72115 | -140.06540 | 36260 ft | 437 kts | 247° |
| 2026-05-04 14:42 | 31.66573 | -140.19231 | 36260 ft | 437 kts | 246° |
| 2026-05-04 14:42 | 31.63798 | -140.25569 | 36260 ft | 436 kts | 246° |
| 2026-05-04 14:43 | 31.61042 | -140.31851 | 36254 ft | 436 kts | 246° |
| 2026-05-04 14:43 | 31.58264 | -140.38174 | 36260 ft | 436 kts | 246° |
| 2026-05-04 14:44 | 31.55485 | -140.44488 | 36260 ft | 436 kts | 246° |
| 2026-05-04 14:44 | 31.52705 | -140.50794 | 36259 ft | 435 kts | 246° |
| 2026-05-04 14:45 | 31.49920 | -140.57099 | 36257 ft | 435 kts | 246° |
| 2026-05-04 14:45 | 31.47156 | -140.63348 | 36260 ft | 435 kts | 246° |
| 2026-05-04 14:46 | 31.44370 | -140.69635 | 36262 ft | 435 kts | 246° |
| 2026-05-04 14:46 | 31.41582 | -140.75916 | 36262 ft | 434 kts | 246° |
| 2026-05-04 14:47 | 31.38792 | -140.82191 | 36260 ft | 434 kts | 246° |
| 2026-05-04 14:47 | 31.36020 | -140.88414 | 36260 ft | 434 kts | 246° |
| 2026-05-04 14:48 | 31.33230 | -140.94669 | 36262 ft | 434 kts | 246° |
| 2026-05-04 14:48 | 31.30435 | -141.00921 | 36262 ft | 433 kts | 246° |
| 2026-05-04 14:49 | 31.27641 | -141.07165 | 36262 ft | 433 kts | 245° |
| 2026-05-04 14:49 | 31.24864 | -141.13359 | 36260 ft | 433 kts | 245° |
| 2026-05-04 14:50 | 31.22061 | -141.19599 | 36262 ft | 433 kts | 245° |
| 2026-05-04 14:50 | 31.19259 | -141.25829 | 36263 ft | 434 kts | 245° |
| 2026-05-04 14:51 | 31.16450 | -141.32060 | 36263 ft | 434 kts | 245° |
| 2026-05-04 14:51 | 31.13654 | -141.38246 | 36253 ft | 433 kts | 245° |
| 2026-05-04 14:52 | 31.10843 | -141.44453 | 36262 ft | 432 kts | 245° |
| 2026-05-04 14:52 | 31.08031 | -141.50655 | 36262 ft | 432 kts | 245° |
| 2026-05-04 14:53 | 31.05219 | -141.56847 | 36263 ft | 432 kts | 245° |
| 2026-05-04 14:53 | 31.02421 | -141.62999 | 36266 ft | 432 kts | 245° |
| 2026-05-04 14:54 | 30.99604 | -141.69181 | 36262 ft | 432 kts | 245° |
| 2026-05-04 14:54 | 30.96790 | -141.75347 | 36264 ft | 432 kts | 245° |
| 2026-05-04 14:55 | 30.93967 | -141.81523 | 36258 ft | 432 kts | 245° |
| 2026-05-04 14:55 | 30.91165 | -141.87642 | 36260 ft | 430 kts | 245° |
| 2026-05-04 14:56 | 30.88348 | -141.93784 | 36270 ft | 430 kts | 245° |
| 2026-05-04 14:56 | 30.85527 | -141.99927 | 36268 ft | 430 kts | 245° |
| 2026-05-04 14:57 | 30.82701 | -142.06068 | 36270 ft | 430 kts | 245° |
| 2026-05-04 14:57 | 30.79876 | -142.12197 | 36260 ft | 429 kts | 244° |
| 2026-05-04 14:58 | 30.77070 | -142.18277 | 36269 ft | 429 kts | 244° |
| 2026-05-04 14:58 | 30.74704 | -142.23396 | 36263 ft | 429 kts | 244° |
| 2026-05-04 14:59 | 30.71413 | -142.30505 | 36262 ft | 429 kts | 244° |
| 2026-05-04 15:00 | 30.67169 | -142.39650 | 36266 ft | 428 kts | 244° |
| 2026-05-04 15:00 | 30.64359 | -142.45695 | 36268 ft | 428 kts | 244° |
| 2026-05-04 15:01 | 30.60109 | -142.54820 | 36259 ft | 429 kts | 244° |
| 2026-05-04 15:01 | 30.57272 | -142.60898 | 36258 ft | 428 kts | 244° |
| 2026-05-04 15:02 | 30.54433 | -142.66970 | 36266 ft | 428 kts | 244° |
| 2026-05-04 15:02 | 30.51613 | -142.72994 | 36258 ft | 428 kts | 244° |
| 2026-05-04 15:03 | 30.48768 | -142.79059 | 36265 ft | 428 kts | 244° |
| 2026-05-04 15:03 | 30.45926 | -142.85109 | 36261 ft | 427 kts | 244° |
| 2026-05-04 15:04 | 30.43084 | -142.91152 | 36266 ft | 427 kts | 244° |
| 2026-05-04 15:04 | 30.40260 | -142.97146 | 36267 ft | 427 kts | 244° |
| 2026-05-04 15:05 | 30.37410 | -143.03186 | 36268 ft | 427 kts | 244° |
| 2026-05-04 15:05 | 30.34564 | -143.09207 | 36262 ft | 427 kts | 244° |
| 2026-05-04 15:06 | 30.31712 | -143.15233 | 36270 ft | 427 kts | 244° |
| 2026-05-04 15:07 | 30.27446 | -143.24228 | 36259 ft | 427 kts | 244° |
| 2026-05-04 15:07 | 30.24588 | -143.30241 | 36262 ft | 426 kts | 244° |
| 2026-05-04 15:08 | 30.21730 | -143.36247 | 36263 ft | 426 kts | 244° |
| 2026-05-04 15:08 | 30.18868 | -143.42250 | 36266 ft | 426 kts | 244° |
| 2026-05-04 15:09 | 30.16023 | -143.48212 | 36263 ft | 426 kts | 244° |
| 2026-05-04 15:09 | 30.13157 | -143.54205 | 36264 ft | 426 kts | 243° |
| 2026-05-04 15:10 | 30.08849 | -143.63198 | 36260 ft | 426 kts | 244° |
| 2026-05-04 15:11 | 30.04552 | -143.72149 | 36265 ft | 427 kts | 244° |
| 2026-05-04 15:11 | 30.01670 | -143.78140 | 36262 ft | 427 kts | 243° |
| 2026-05-04 15:12 | 29.98790 | -143.84117 | 36262 ft | 426 kts | 243° |
| 2026-05-04 15:12 | 29.95910 | -143.90087 | 36262 ft | 426 kts | 243° |
| 2026-05-04 15:13 | 29.93045 | -143.96016 | 36265 ft | 426 kts | 243° |
| 2026-05-04 15:13 | 29.90154 | -144.01990 | 36265 ft | 426 kts | 243° |
| 2026-05-04 15:14 | 29.87265 | -144.07950 | 36263 ft | 426 kts | 243° |
| 2026-05-04 15:14 | 29.84394 | -144.13865 | 36263 ft | 425 kts | 243° |
| 2026-05-04 15:15 | 29.81504 | -144.19809 | 36254 ft | 425 kts | 243° |
| 2026-05-04 15:15 | 29.78609 | -144.25755 | 36266 ft | 426 kts | 243° |
| 2026-05-04 15:16 | 29.74269 | -144.34652 | 36263 ft | 424 kts | 243° |
| 2026-05-04 15:17 | 29.69952 | -144.43482 | 36262 ft | 424 kts | 243° |
| 2026-05-04 15:17 | 29.65609 | -144.52348 | 36263 ft | 424 kts | 243° |
| 2026-05-04 15:18 | 29.62709 | -144.58255 | 36260 ft | 424 kts | 243° |
| 2026-05-04 15:19 | 29.58378 | -144.67062 | 36260 ft | 424 kts | 243° |
| 2026-05-04 15:19 | 29.54025 | -144.75895 | 36272 ft | 424 kts | 243° |
| 2026-05-04 15:20 | 29.51123 | -144.81771 | 36256 ft | 422 kts | 243° |
| 2026-05-04 15:20 | 29.48240 | -144.87603 | 36257 ft | 423 kts | 243° |
| 2026-05-04 15:21 | 29.45335 | -144.93469 | 36255 ft | 423 kts | 243° |
| 2026-05-04 15:22 | 29.40968 | -145.02271 | 36258 ft | 423 kts | 243° |
| 2026-05-04 15:22 | 29.36626 | -145.11004 | 36254 ft | 422 kts | 243° |
| 2026-05-04 15:23 | 29.33714 | -145.16850 | 36257 ft | 422 kts | 243° |
| 2026-05-04 15:23 | 29.30800 | -145.22694 | 36257 ft | 422 kts | 243° |
| 2026-05-04 15:24 | 29.25461 | -145.33374 | 36257 ft | 421 kts | 243° |
| 2026-05-04 15:25 | 29.22076 | -145.40132 | 36252 ft | 421 kts | 243° |
| 2026-05-04 15:26 | 29.17691 | -145.48872 | 36255 ft | 423 kts | 243° |
| 2026-05-04 15:26 | 29.13315 | -145.57571 | 36256 ft | 421 kts | 242° |
| 2026-05-04 15:27 | 29.08937 | -145.66257 | 36254 ft | 420 kts | 242° |
| 2026-05-04 15:28 | 29.05049 | -145.73957 | 36254 ft | 420 kts | 242° |
| 2026-05-04 15:29 | 29.00192 | -145.83554 | 36254 ft | 419 kts | 242° |
| 2026-05-04 15:30 | 28.90464 | -146.02708 | 36256 ft | 419 kts | 242° |
| 2026-05-04 15:31 | 28.86058 | -146.11355 | 36252 ft | 420 kts | 242° |
| 2026-05-04 15:32 | 28.78720 | -146.25716 | 36250 ft | 420 kts | 242° |
| 2026-05-04 15:34 | 28.71354 | -146.40079 | 36250 ft | 419 kts | 242° |
| 2026-05-04 15:34 | 28.66954 | -146.48636 | 36247 ft | 419 kts | 242° |
| 2026-05-04 15:35 | 28.62528 | -146.57226 | 36245 ft | 419 kts | 242° |
| 2026-05-04 15:36 | 28.58124 | -146.65756 | 36245 ft | 419 kts | 242° |
| 2026-05-04 15:36 | 28.55167 | -146.71474 | 36246 ft | 419 kts | 242° |
| 2026-05-04 15:37 | 28.52208 | -146.77186 | 36249 ft | 419 kts | 242° |
| 2026-05-04 15:37 | 28.49246 | -146.82898 | 36248 ft | 419 kts | 242° |
| 2026-05-04 15:38 | 28.46304 | -146.88563 | 36243 ft | 418 kts | 242° |
| 2026-05-04 15:38 | 28.43345 | -146.94251 | 36242 ft | 418 kts | 242° |
| 2026-05-04 15:39 | 28.40382 | -146.99942 | 36245 ft | 419 kts | 242° |
| 2026-05-04 15:40 | 28.35928 | -147.08480 | 36246 ft | 419 kts | 242° |
| 2026-05-04 15:40 | 28.32974 | -147.14133 | 36245 ft | 419 kts | 242° |
| 2026-05-04 15:41 | 28.30004 | -147.19810 | 36244 ft | 418 kts | 242° |
| 2026-05-04 15:41 | 28.27036 | -147.25475 | 36240 ft | 419 kts | 242° |
| 2026-05-04 15:42 | 28.24055 | -147.31158 | 36242 ft | 420 kts | 242° |
| 2026-05-04 15:42 | 28.21066 | -147.36848 | 36244 ft | 420 kts | 242° |
| 2026-05-04 15:43 | 28.18093 | -147.42497 | 36247 ft | 420 kts | 242° |
| 2026-05-04 15:43 | 28.15104 | -147.48172 | 36240 ft | 419 kts | 242° |
| 2026-05-04 15:44 | 28.12113 | -147.53843 | 36238 ft | 419 kts | 242° |
| 2026-05-04 15:44 | 28.09118 | -147.59513 | 36237 ft | 420 kts | 242° |
| 2026-05-04 15:45 | 28.06135 | -147.65154 | 36246 ft | 421 kts | 241° |
| 2026-05-04 15:45 | 28.03131 | -147.70827 | 36241 ft | 420 kts | 241° |
| 2026-05-04 15:46 | 28.00126 | -147.76493 | 36233 ft | 420 kts | 241° |
| 2026-05-04 15:46 | 27.97118 | -147.82158 | 36239 ft | 420 kts | 241° |
| 2026-05-04 15:47 | 27.94110 | -147.87816 | 36232 ft | 420 kts | 241° |
| 2026-05-04 15:47 | 27.91115 | -147.93441 | 36239 ft | 421 kts | 241° |
| 2026-05-04 15:48 | 27.88096 | -147.99106 | 36242 ft | 420 kts | 241° |
| 2026-05-04 15:48 | 27.83566 | -148.07584 | 36235 ft | 420 kts | 241° |
| 2026-05-04 15:49 | 27.80562 | -148.13198 | 36235 ft | 420 kts | 241° |
| 2026-05-04 15:49 | 27.77538 | -148.18842 | 36235 ft | 420 kts | 241° |
| 2026-05-04 15:50 | 27.74508 | -148.24490 | 36239 ft | 421 kts | 241° |
| 2026-05-04 15:50 | 27.71473 | -148.30140 | 36225 ft | 421 kts | 241° |
| 2026-05-04 15:51 | 27.68437 | -148.35785 | 36226 ft | 421 kts | 241° |
| 2026-05-04 15:51 | 27.65417 | -148.41391 | 36236 ft | 421 kts | 241° |
| 2026-05-04 15:52 | 27.62377 | -148.47028 | 36239 ft | 421 kts | 241° |
| 2026-05-04 15:52 | 27.59334 | -148.52664 | 36231 ft | 421 kts | 241° |
| 2026-05-04 15:53 | 27.56285 | -148.58303 | 36230 ft | 421 kts | 241° |
| 2026-05-04 15:53 | 27.53254 | -148.63902 | 36232 ft | 421 kts | 241° |
| 2026-05-04 15:54 | 27.50201 | -148.69533 | 36236 ft | 421 kts | 241° |
| 2026-05-04 15:54 | 27.47143 | -148.75167 | 36229 ft | 421 kts | 241° |
| 2026-05-04 15:55 | 27.44105 | -148.80756 | 36230 ft | 421 kts | 241° |
| 2026-05-04 15:55 | 27.41046 | -148.86378 | 36230 ft | 421 kts | 241° |
| 2026-05-04 15:56 | 27.37982 | -148.92000 | 36229 ft | 421 kts | 241° |
| 2026-05-04 15:56 | 27.34917 | -148.97619 | 36228 ft | 421 kts | 241° |
| 2026-05-04 15:57 | 27.31849 | -149.03235 | 36235 ft | 421 kts | 241° |
| 2026-05-04 15:57 | 27.28798 | -149.08811 | 36233 ft | 422 kts | 241° |
| 2026-05-04 15:58 | 27.25718 | -149.14435 | 36231 ft | 422 kts | 241° |
| 2026-05-04 15:58 | 27.22637 | -149.20052 | 36225 ft | 422 kts | 241° |
| 2026-05-04 15:59 | 27.19575 | -149.25628 | 36228 ft | 422 kts | 241° |
| 2026-05-04 15:59 | 27.16493 | -149.31233 | 36231 ft | 422 kts | 241° |
| 2026-05-04 16:00 | 27.13408 | -149.36838 | 36236 ft | 422 kts | 241° |
| 2026-05-04 16:00 | 27.10316 | -149.42447 | 36231 ft | 422 kts | 241° |
| 2026-05-04 16:01 | 27.07224 | -149.48050 | 36217 ft | 422 kts | 241° |
| 2026-05-04 16:01 | 27.04148 | -149.53616 | 36228 ft | 422 kts | 241° |
| 2026-05-04 16:02 | 27.01051 | -149.59213 | 36225 ft | 422 kts | 241° |
| 2026-05-04 16:03 | 26.96400 | -149.67605 | 36227 ft | 423 kts | 241° |
| 2026-05-04 16:03 | 26.93319 | -149.73156 | 36226 ft | 423 kts | 240° |
| 2026-05-04 16:04 | 26.90210 | -149.78750 | 36222 ft | 423 kts | 240° |